GIA8207 OEMA-WAOO
Flight info
| Callsign | GIA8207 |
|---|---|
| Flight time | 10h 17m |
| Altitude | 39000 |
| Route | MEDRO J852 BDB Y214 NAGUB M321 AMBAG DCT GOBRO L425 ASPUX T208 BOLUR P751 LADIB P570 POMAN T6 CIA W46 MDI M300 SALAX A576 SJ A464 IRTAD B338 AKVOM M630 JUNHA M774 OBDOS L504 PNK W35 ENPIN |
| Aircraft | A333/H-SDE1E2E3FGHIJ1J4J5M1P2RWXY/HB1D1 |
Departure
| Time | 2026-05-08 16:35 |
|---|---|
| Airport | Prince Mohammad Bin Abdulaziz Airport (OEMA) |
Arrival
| Time | 2026-05-09 02:52 |
|---|---|
| Airport | Syamsudin Noor International Airport (WAOO) |
| Time | Latitude | Longitude | Altitude | Speed | Heading |
|---|---|---|---|---|---|
| 2026-05-08 16:10 | 24.55737 | 39.71236 | 2074 ft | 0 kts | 77° |
| 2026-05-08 16:24 | 24.55734 | 39.71218 | 2074 ft | 4 kts | 77° |
| 2026-05-08 16:24 | 24.55728 | 39.71189 | 2072 ft | 4 kts | 77° |
| 2026-05-08 16:25 | 24.55723 | 39.71164 | 2074 ft | 2 kts | 77° |
| 2026-05-08 16:25 | 24.55722 | 39.71138 | 2074 ft | 4 kts | 124° |
| 2026-05-08 16:25 | 24.55742 | 39.71125 | 2074 ft | 4 kts | 169° |
| 2026-05-08 16:25 | 24.55757 | 39.71122 | 2074 ft | 2 kts | 169° |
| 2026-05-08 16:27 | 24.55748 | 39.71124 | 2069 ft | 3 kts | 169° |
| 2026-05-08 16:27 | 24.55718 | 39.71130 | 2070 ft | 7 kts | 169° |
| 2026-05-08 16:27 | 24.55646 | 39.71145 | 2068 ft | 12 kts | 169° |
| 2026-05-08 16:27 | 24.55560 | 39.71163 | 2074 ft | 13 kts | 169° |
| 2026-05-08 16:28 | 24.55470 | 39.71182 | 2071 ft | 13 kts | 169° |
| 2026-05-08 16:28 | 24.55378 | 39.71202 | 2071 ft | 14 kts | 169° |
| 2026-05-08 16:28 | 24.55285 | 39.71219 | 2070 ft | 11 kts | 182° |
| 2026-05-08 16:28 | 24.55243 | 39.71183 | 2068 ft | 6 kts | 255° |
| 2026-05-08 16:29 | 24.55232 | 39.71139 | 2074 ft | 6 kts | 255° |
| 2026-05-08 16:29 | 24.55218 | 39.71085 | 2071 ft | 10 kts | 249° |
| 2026-05-08 16:29 | 24.55176 | 39.71049 | 2071 ft | 5 kts | 177° |
| 2026-05-08 16:29 | 24.55106 | 39.71063 | 2074 ft | 13 kts | 169° |
| 2026-05-08 16:30 | 24.55017 | 39.71080 | 2074 ft | 13 kts | 170° |
| 2026-05-08 16:30 | 24.54924 | 39.71098 | 2069 ft | 14 kts | 170° |
| 2026-05-08 16:30 | 24.54832 | 39.71120 | 2069 ft | 13 kts | 166° |
| 2026-05-08 16:30 | 24.54741 | 39.71141 | 2071 ft | 14 kts | 168° |
| 2026-05-08 16:31 | 24.54646 | 39.71163 | 2072 ft | 14 kts | 168° |
| 2026-05-08 16:31 | 24.54547 | 39.71185 | 2074 ft | 15 kts | 168° |
| 2026-05-08 16:31 | 24.54447 | 39.71208 | 2074 ft | 15 kts | 168° |
| 2026-05-08 16:31 | 24.54343 | 39.71230 | 2073 ft | 15 kts | 171° |
| 2026-05-08 16:32 | 24.54241 | 39.71248 | 2074 ft | 15 kts | 169° |
| 2026-05-08 16:32 | 24.54141 | 39.71268 | 2070 ft | 15 kts | 169° |
| 2026-05-08 16:32 | 24.54046 | 39.71288 | 2072 ft | 14 kts | 169° |
| 2026-05-08 16:32 | 24.53951 | 39.71303 | 2072 ft | 12 kts | 187° |
| 2026-05-08 16:33 | 24.53911 | 39.71243 | 2074 ft | 9 kts | 257° |
| 2026-05-08 16:33 | 24.53896 | 39.71172 | 2072 ft | 10 kts | 257° |
| 2026-05-08 16:33 | 24.53904 | 39.71139 | 2074 ft | 3 kts | 297° |
| 2026-05-08 16:33 | 24.53934 | 39.71122 | 2074 ft | 7 kts | 348° |
| 2026-05-08 16:34 | 24.54127 | 39.71080 | 2072 ft | 56 kts | 349° |
| 2026-05-08 16:34 | 24.54700 | 39.70953 | 2073 ft | 111 kts | 348° |
| 2026-05-08 16:34 | 24.55290 | 39.70831 | 2072 ft | 144 kts | 349° |
| 2026-05-08 16:34 | 24.56419 | 39.70594 | 2192 ft | 179 kts | 349° |
| 2026-05-08 16:35 | 24.58096 | 39.70254 | 2886 ft | 197 kts | 347° |
| 2026-05-08 16:35 | 24.59024 | 39.70053 | 3304 ft | 205 kts | 347° |
| 2026-05-08 16:35 | 24.60478 | 39.69736 | 3679 ft | 222 kts | 347° |
| 2026-05-08 16:35 | 24.62085 | 39.69388 | 3894 ft | 246 kts | 347° |
| 2026-05-08 16:36 | 24.63774 | 39.69028 | 4579 ft | 246 kts | 348° |
| 2026-05-08 16:36 | 24.65471 | 39.68667 | 5150 ft | 255 kts | 348° |
| 2026-05-08 16:36 | 24.67283 | 39.68284 | 5397 ft | 275 kts | 348° |
| 2026-05-08 16:36 | 24.69199 | 39.67875 | 5850 ft | 284 kts | 348° |
| 2026-05-08 16:37 | 24.71157 | 39.67453 | 6408 ft | 289 kts | 348° |
| 2026-05-08 16:37 | 24.73145 | 39.67029 | 7050 ft | 293 kts | 348° |
| 2026-05-08 16:37 | 24.75149 | 39.66604 | 7717 ft | 294 kts | 348° |
| 2026-05-08 16:37 | 24.77173 | 39.66176 | 8368 ft | 298 kts | 348° |
| 2026-05-08 16:38 | 24.79220 | 39.65739 | 9077 ft | 300 kts | 348° |
| 2026-05-08 16:38 | 24.81290 | 39.65352 | 9727 ft | 304 kts | 354° |
| 2026-05-08 16:38 | 24.83381 | 39.65556 | 10266 ft | 314 kts | 17° |
| 2026-05-08 16:38 | 24.85297 | 39.66810 | 10515 ft | 333 kts | 45° |
| 2026-05-08 16:39 | 24.86569 | 39.68999 | 10731 ft | 350 kts | 71° |
| 2026-05-08 16:39 | 24.87136 | 39.71649 | 11091 ft | 361 kts | 81° |
| 2026-05-08 16:39 | 24.87557 | 39.74389 | 11645 ft | 366 kts | 81° |
| 2026-05-08 16:39 | 24.88000 | 39.77159 | 12237 ft | 370 kts | 80° |
| 2026-05-08 16:40 | 24.88477 | 39.79957 | 12911 ft | 373 kts | 79° |
| 2026-05-08 16:40 | 24.88974 | 39.82767 | 13609 ft | 375 kts | 79° |
| 2026-05-08 16:40 | 24.89428 | 39.85609 | 14270 ft | 378 kts | 85° |
| 2026-05-08 16:40 | 24.89545 | 39.88506 | 14879 ft | 380 kts | 90° |
| 2026-05-08 16:41 | 24.89537 | 39.91431 | 15488 ft | 383 kts | 91° |
| 2026-05-08 16:41 | 24.89511 | 39.94378 | 16109 ft | 387 kts | 91° |
| 2026-05-08 16:41 | 24.89485 | 39.97356 | 16743 ft | 390 kts | 91° |
| 2026-05-08 16:42 | 24.89442 | 40.03371 | 17935 ft | 396 kts | 91° |
| 2026-05-08 16:42 | 24.89422 | 40.06427 | 18471 ft | 401 kts | 92° |
| 2026-05-08 16:42 | 24.89201 | 40.09487 | 19002 ft | 402 kts | 103° |
| 2026-05-08 16:42 | 24.88233 | 40.12363 | 19527 ft | 402 kts | 122° |
| 2026-05-08 16:43 | 24.86532 | 40.14792 | 20039 ft | 402 kts | 134° |
| 2026-05-08 16:43 | 24.84596 | 40.17028 | 20524 ft | 405 kts | 136° |
| 2026-05-08 16:43 | 24.82615 | 40.19248 | 20993 ft | 409 kts | 136° |
| 2026-05-08 16:43 | 24.80617 | 40.21493 | 21461 ft | 412 kts | 136° |
| 2026-05-08 16:44 | 24.78612 | 40.23758 | 21911 ft | 415 kts | 136° |
| 2026-05-08 16:44 | 24.76591 | 40.26049 | 22363 ft | 419 kts | 136° |
| 2026-05-08 16:44 | 24.74560 | 40.28356 | 22788 ft | 422 kts | 136° |
| 2026-05-08 16:44 | 24.72513 | 40.30682 | 23209 ft | 424 kts | 136° |
| 2026-05-08 16:45 | 24.70460 | 40.33037 | 23611 ft | 428 kts | 135° |
| 2026-05-08 16:45 | 24.68400 | 40.35411 | 24007 ft | 431 kts | 135° |
| 2026-05-08 16:45 | 24.66320 | 40.37807 | 24395 ft | 434 kts | 135° |
| 2026-05-08 16:45 | 24.64230 | 40.40217 | 24794 ft | 437 kts | 135° |
| 2026-05-08 16:46 | 24.62129 | 40.42637 | 25167 ft | 439 kts | 135° |
| 2026-05-08 16:46 | 24.60014 | 40.45072 | 25532 ft | 441 kts | 136° |
| 2026-05-08 16:46 | 24.57888 | 40.47518 | 25882 ft | 444 kts | 136° |
| 2026-05-08 16:46 | 24.55746 | 40.49980 | 26257 ft | 446 kts | 136° |
| 2026-05-08 16:47 | 24.53596 | 40.52451 | 26621 ft | 449 kts | 136° |
| 2026-05-08 16:47 | 24.51432 | 40.54936 | 26943 ft | 451 kts | 136° |
| 2026-05-08 16:47 | 24.49286 | 40.57467 | 27292 ft | 455 kts | 132° |
| 2026-05-08 16:47 | 24.47418 | 40.60287 | 27619 ft | 460 kts | 122° |
| 2026-05-08 16:48 | 24.46061 | 40.63429 | 27942 ft | 465 kts | 111° |
| 2026-05-08 16:48 | 24.45263 | 40.66883 | 28260 ft | 470 kts | 101° |
| 2026-05-08 16:48 | 24.44769 | 40.70435 | 28581 ft | 473 kts | 99° |
| 2026-05-08 16:48 | 24.44384 | 40.74024 | 28886 ft | 475 kts | 97° |
| 2026-05-08 16:49 | 24.44047 | 40.77642 | 29191 ft | 477 kts | 97° |
| 2026-05-08 16:49 | 24.43722 | 40.81269 | 29498 ft | 479 kts | 97° |
| 2026-05-08 16:49 | 24.43386 | 40.84921 | 29783 ft | 482 kts | 97° |
| 2026-05-08 16:49 | 24.43036 | 40.88583 | 30069 ft | 484 kts | 97° |
| 2026-05-08 16:50 | 24.42670 | 40.92256 | 30349 ft | 486 kts | 98° |
| 2026-05-08 16:50 | 24.42294 | 40.95947 | 30610 ft | 488 kts | 98° |
| 2026-05-08 16:50 | 24.41911 | 40.99650 | 30909 ft | 490 kts | 98° |
| 2026-05-08 16:50 | 24.41522 | 41.03368 | 31189 ft | 491 kts | 98° |
| 2026-05-08 16:51 | 24.41130 | 41.07103 | 31466 ft | 493 kts | 98° |
| 2026-05-08 16:51 | 24.40739 | 41.10849 | 31706 ft | 496 kts | 99° |
| 2026-05-08 16:51 | 24.40345 | 41.14609 | 32015 ft | 497 kts | 99° |
| 2026-05-08 16:51 | 24.39951 | 41.18375 | 32432 ft | 495 kts | 99° |
| 2026-05-08 16:52 | 24.39556 | 41.22115 | 32809 ft | 494 kts | 99° |
| 2026-05-08 16:52 | 24.39161 | 41.25857 | 33147 ft | 493 kts | 99° |
| 2026-05-08 16:52 | 24.38767 | 41.29589 | 33489 ft | 493 kts | 99° |
| 2026-05-08 16:52 | 24.38371 | 41.33322 | 33800 ft | 492 kts | 99° |
| 2026-05-08 16:53 | 24.37580 | 41.40779 | 34380 ft | 492 kts | 100° |
| 2026-05-08 16:53 | 24.37181 | 41.44513 | 34678 ft | 492 kts | 100° |
| 2026-05-08 16:53 | 24.36783 | 41.48232 | 34977 ft | 491 kts | 100° |
| 2026-05-08 16:54 | 24.36384 | 41.51954 | 35253 ft | 491 kts | 100° |
| 2026-05-08 16:54 | 24.35984 | 41.55675 | 35523 ft | 491 kts | 100° |
| 2026-05-08 16:54 | 24.35583 | 41.59396 | 35769 ft | 491 kts | 101° |
| 2026-05-08 16:54 | 24.35182 | 41.63107 | 36034 ft | 491 kts | 101° |
| 2026-05-08 16:55 | 24.34781 | 41.66824 | 36270 ft | 491 kts | 101° |
| 2026-05-08 16:55 | 24.34379 | 41.70534 | 36512 ft | 490 kts | 101° |
| 2026-05-08 16:55 | 24.33975 | 41.74245 | 36738 ft | 490 kts | 101° |
| 2026-05-08 16:55 | 24.33571 | 41.77945 | 37024 ft | 488 kts | 101° |
| 2026-05-08 16:56 | 24.33098 | 41.81607 | 37373 ft | 482 kts | 106° |
| 2026-05-08 16:56 | 24.32328 | 41.85153 | 37671 ft | 476 kts | 109° |
| 2026-05-08 16:56 | 24.31476 | 41.88655 | 37884 ft | 475 kts | 110° |
| 2026-05-08 16:56 | 24.30580 | 41.92144 | 38065 ft | 475 kts | 111° |
| 2026-05-08 16:57 | 24.29665 | 41.95614 | 38287 ft | 473 kts | 111° |
| 2026-05-08 16:57 | 24.28743 | 41.99074 | 38473 ft | 473 kts | 111° |
| 2026-05-08 16:57 | 24.27818 | 42.02537 | 38626 ft | 473 kts | 111° |
| 2026-05-08 16:57 | 24.26896 | 42.06002 | 38796 ft | 474 kts | 111° |
| 2026-05-08 16:58 | 24.25975 | 42.09468 | 38947 ft | 474 kts | 111° |
| 2026-05-08 16:58 | 24.25055 | 42.12941 | 39012 ft | 476 kts | 111° |
| 2026-05-08 16:58 | 24.23203 | 42.19926 | 39028 ft | 478 kts | 111° |
| 2026-05-08 16:59 | 24.21356 | 42.26910 | 39026 ft | 477 kts | 111° |
| 2026-05-08 16:59 | 24.19504 | 42.33892 | 39029 ft | 477 kts | 111° |
| 2026-05-08 17:00 | 24.17649 | 42.40864 | 39034 ft | 477 kts | 111° |
| 2026-05-08 17:00 | 24.15787 | 42.47841 | 39035 ft | 477 kts | 111° |
| 2026-05-08 17:01 | 24.13932 | 42.54792 | 39073 ft | 477 kts | 111° |
| 2026-05-08 17:01 | 24.13001 | 42.58276 | 39264 ft | 476 kts | 111° |
| 2026-05-08 17:01 | 24.12069 | 42.61753 | 39441 ft | 476 kts | 111° |
| 2026-05-08 17:02 | 24.11138 | 42.65227 | 39596 ft | 475 kts | 111° |
| 2026-05-08 17:02 | 24.10206 | 42.68699 | 39756 ft | 475 kts | 111° |
| 2026-05-08 17:02 | 24.09276 | 42.72168 | 39875 ft | 476 kts | 111° |
| 2026-05-08 17:02 | 24.08342 | 42.75642 | 40004 ft | 476 kts | 111° |
| 2026-05-08 17:03 | 24.07407 | 42.79113 | 40106 ft | 477 kts | 111° |
| 2026-05-08 17:03 | 24.06480 | 42.82548 | 40200 ft | 477 kts | 111° |
| 2026-05-08 17:03 | 24.05539 | 42.86033 | 40315 ft | 477 kts | 111° |
| 2026-05-08 17:03 | 24.04599 | 42.89515 | 40455 ft | 477 kts | 111° |
| 2026-05-08 17:04 | 24.03659 | 42.92993 | 40574 ft | 477 kts | 111° |
| 2026-05-08 17:04 | 24.02716 | 42.96476 | 40670 ft | 478 kts | 111° |
| 2026-05-08 17:04 | 24.01773 | 42.99960 | 40782 ft | 478 kts | 111° |
| 2026-05-08 17:04 | 24.00816 | 43.03489 | 40897 ft | 478 kts | 111° |
| 2026-05-08 17:05 | 23.98923 | 43.10462 | 41010 ft | 480 kts | 111° |
| 2026-05-08 17:05 | 23.97011 | 43.17483 | 41053 ft | 483 kts | 111° |
| 2026-05-08 17:06 | 23.95093 | 43.24525 | 41054 ft | 483 kts | 111° |
| 2026-05-08 17:06 | 23.93174 | 43.31558 | 41081 ft | 483 kts | 111° |
| 2026-05-08 17:07 | 23.91249 | 43.38593 | 41094 ft | 483 kts | 111° |
| 2026-05-08 17:07 | 23.89319 | 43.45632 | 41093 ft | 484 kts | 111° |
| 2026-05-08 17:08 | 23.87384 | 43.52674 | 41091 ft | 484 kts | 111° |
| 2026-05-08 17:08 | 23.85445 | 43.59718 | 41096 ft | 484 kts | 111° |
| 2026-05-08 17:09 | 23.83501 | 43.66766 | 41093 ft | 485 kts | 111° |
| 2026-05-08 17:09 | 23.81554 | 43.73813 | 41091 ft | 485 kts | 111° |
| 2026-05-08 17:10 | 23.79605 | 43.80855 | 41086 ft | 485 kts | 111° |
| 2026-05-08 17:10 | 23.77746 | 43.87936 | 41098 ft | 487 kts | 105° |
| 2026-05-08 17:11 | 23.76881 | 43.95301 | 41097 ft | 491 kts | 99° |
| 2026-05-08 17:11 | 23.76307 | 44.02735 | 41096 ft | 492 kts | 98° |
| 2026-05-08 17:12 | 23.75785 | 44.10177 | 41090 ft | 491 kts | 98° |
| 2026-05-08 17:12 | 23.75248 | 44.17606 | 41082 ft | 491 kts | 98° |
| 2026-05-08 17:13 | 23.74692 | 44.25037 | 41085 ft | 491 kts | 98° |
| 2026-05-08 17:13 | 23.74127 | 44.32467 | 41083 ft | 491 kts | 98° |
| 2026-05-08 17:14 | 23.73562 | 44.39836 | 41077 ft | 491 kts | 98° |
| 2026-05-08 17:14 | 23.72991 | 44.47253 | 41083 ft | 490 kts | 98° |
| 2026-05-08 17:15 | 23.72418 | 44.54662 | 41083 ft | 490 kts | 98° |
| 2026-05-08 17:15 | 23.71841 | 44.62065 | 41072 ft | 489 kts | 98° |
| 2026-05-08 17:16 | 23.71262 | 44.69458 | 41073 ft | 489 kts | 98° |
| 2026-05-08 17:16 | 23.70679 | 44.76853 | 41069 ft | 489 kts | 98° |
| 2026-05-08 17:17 | 23.70093 | 44.84236 | 41071 ft | 488 kts | 98° |
| 2026-05-08 17:17 | 23.69505 | 44.91604 | 41063 ft | 488 kts | 98° |
| 2026-05-08 17:18 | 23.69008 | 44.97782 | 41064 ft | 487 kts | 98° |
| 2026-05-08 17:18 | 23.68414 | 45.05140 | 41060 ft | 487 kts | 98° |
| 2026-05-08 17:19 | 23.67820 | 45.12446 | 41054 ft | 486 kts | 98° |
| 2026-05-08 17:19 | 23.67220 | 45.19793 | 41054 ft | 486 kts | 98° |
| 2026-05-08 17:20 | 23.66616 | 45.27127 | 41047 ft | 486 kts | 98° |
| 2026-05-08 17:20 | 23.66009 | 45.34463 | 41043 ft | 486 kts | 98° |
| 2026-05-08 17:21 | 23.65398 | 45.41796 | 41048 ft | 485 kts | 98° |
| 2026-05-08 17:21 | 23.64785 | 45.49119 | 41043 ft | 485 kts | 98° |
| 2026-05-08 17:22 | 23.64168 | 45.56441 | 41048 ft | 485 kts | 98° |
| 2026-05-08 17:22 | 23.63549 | 45.63758 | 41043 ft | 485 kts | 98° |
| 2026-05-08 17:23 | 23.62926 | 45.71077 | 41034 ft | 484 kts | 98° |
| 2026-05-08 17:23 | 23.62300 | 45.78385 | 41033 ft | 484 kts | 98° |
| 2026-05-08 17:24 | 23.61671 | 45.85696 | 41034 ft | 484 kts | 98° |
| 2026-05-08 17:24 | 23.61039 | 45.93006 | 41037 ft | 484 kts | 98° |
| 2026-05-08 17:25 | 23.60403 | 46.00312 | 41029 ft | 484 kts | 98° |
| 2026-05-08 17:25 | 23.59764 | 46.07619 | 41026 ft | 484 kts | 98° |
| 2026-05-08 17:26 | 23.59122 | 46.14920 | 41032 ft | 484 kts | 98° |
| 2026-05-08 17:26 | 23.58478 | 46.22220 | 41026 ft | 484 kts | 98° |
| 2026-05-08 17:27 | 23.57829 | 46.29510 | 41023 ft | 483 kts | 98° |
| 2026-05-08 17:27 | 23.57177 | 46.36800 | 40990 ft | 483 kts | 98° |
| 2026-05-08 17:28 | 23.56523 | 46.44082 | 40989 ft | 483 kts | 98° |
| 2026-05-08 17:28 | 23.55871 | 46.51313 | 40981 ft | 482 kts | 98° |
| 2026-05-08 17:29 | 23.55206 | 46.58632 | 40980 ft | 482 kts | 98° |
| 2026-05-08 17:29 | 23.54542 | 46.65897 | 40982 ft | 482 kts | 98° |
| 2026-05-08 17:30 | 23.53879 | 46.73115 | 40981 ft | 481 kts | 98° |
| 2026-05-08 17:30 | 23.53210 | 46.80371 | 40981 ft | 481 kts | 98° |
| 2026-05-08 17:31 | 23.52537 | 46.87618 | 40979 ft | 481 kts | 98° |
| 2026-05-08 17:31 | 23.51861 | 46.94865 | 40980 ft | 481 kts | 98° |
| 2026-05-08 17:32 | 23.51183 | 47.02106 | 40971 ft | 480 kts | 98° |
| 2026-05-08 17:32 | 23.50502 | 47.09344 | 40970 ft | 480 kts | 98° |
| 2026-05-08 17:33 | 23.49817 | 47.16574 | 40971 ft | 480 kts | 98° |
| 2026-05-08 17:33 | 23.49130 | 47.23800 | 40972 ft | 480 kts | 98° |
| 2026-05-08 17:34 | 23.48439 | 47.31025 | 40971 ft | 480 kts | 98° |
| 2026-05-08 17:34 | 23.47745 | 47.38248 | 40972 ft | 479 kts | 98° |
| 2026-05-08 17:35 | 23.46651 | 47.45371 | 40971 ft | 474 kts | 110° |
| 2026-05-08 17:35 | 23.43815 | 47.51727 | 40975 ft | 464 kts | 130° |
| 2026-05-08 17:36 | 23.39278 | 47.56573 | 40971 ft | 455 kts | 148° |
| 2026-05-08 17:36 | 23.33977 | 47.60340 | 40969 ft | 455 kts | 151° |
| 2026-05-08 17:37 | 23.28564 | 47.63921 | 40962 ft | 455 kts | 152° |
| 2026-05-08 17:37 | 23.23151 | 47.67513 | 40962 ft | 456 kts | 151° |
| 2026-05-08 17:38 | 23.17759 | 47.71136 | 40956 ft | 456 kts | 151° |
| 2026-05-08 17:38 | 23.12403 | 47.74827 | 40952 ft | 457 kts | 146° |
| 2026-05-08 17:39 | 23.07834 | 47.79660 | 40953 ft | 464 kts | 128° |
| 2026-05-08 17:39 | 23.04308 | 47.85555 | 40952 ft | 467 kts | 124° |
| 2026-05-08 17:40 | 23.01011 | 47.91638 | 40952 ft | 468 kts | 123° |
| 2026-05-08 17:40 | 22.97733 | 47.97734 | 40953 ft | 468 kts | 123° |
| 2026-05-08 17:41 | 22.94422 | 48.03814 | 40953 ft | 468 kts | 123° |
| 2026-05-08 17:41 | 22.91094 | 48.09873 | 40952 ft | 468 kts | 123° |
| 2026-05-08 17:42 | 22.87758 | 48.15929 | 40952 ft | 468 kts | 123° |
| 2026-05-08 17:42 | 22.84421 | 48.21981 | 40953 ft | 468 kts | 123° |
| 2026-05-08 17:43 | 22.81082 | 48.28033 | 40953 ft | 468 kts | 123° |
| 2026-05-08 17:43 | 22.77742 | 48.34079 | 40943 ft | 468 kts | 123° |
| 2026-05-08 17:44 | 22.74423 | 48.40080 | 40943 ft | 467 kts | 123° |
| 2026-05-08 17:44 | 22.71079 | 48.46119 | 40943 ft | 467 kts | 123° |
| 2026-05-08 17:45 | 22.67733 | 48.52157 | 40943 ft | 467 kts | 123° |
| 2026-05-08 17:45 | 22.64385 | 48.58190 | 40943 ft | 467 kts | 123° |
| 2026-05-08 17:46 | 22.61034 | 48.64219 | 40943 ft | 467 kts | 123° |
| 2026-05-08 17:46 | 22.57684 | 48.70242 | 40943 ft | 467 kts | 123° |
| 2026-05-08 17:47 | 22.54327 | 48.76270 | 40943 ft | 467 kts | 123° |
| 2026-05-08 17:47 | 22.51517 | 48.81312 | 40943 ft | 467 kts | 123° |
| 2026-05-08 17:48 | 22.47613 | 48.88306 | 40943 ft | 467 kts | 123° |
| 2026-05-08 17:48 | 22.44252 | 48.94320 | 40943 ft | 467 kts | 123° |
| 2026-05-08 17:49 | 22.40891 | 49.00329 | 40943 ft | 467 kts | 123° |
| 2026-05-08 17:49 | 22.37524 | 49.06340 | 40935 ft | 467 kts | 123° |
| 2026-05-08 17:50 | 22.34157 | 49.12344 | 40934 ft | 467 kts | 123° |
| 2026-05-08 17:50 | 22.30789 | 49.18343 | 40934 ft | 467 kts | 123° |
| 2026-05-08 17:51 | 22.27417 | 49.24343 | 40934 ft | 467 kts | 123° |
| 2026-05-08 17:51 | 22.24043 | 49.30340 | 40934 ft | 467 kts | 123° |
| 2026-05-08 17:52 | 22.20666 | 49.36334 | 40934 ft | 467 kts | 123° |
| 2026-05-08 17:53 | 22.15599 | 49.45318 | 40934 ft | 467 kts | 123° |
| 2026-05-08 17:53 | 22.12218 | 49.51303 | 40926 ft | 467 kts | 123° |
| 2026-05-08 17:54 | 22.08835 | 49.57284 | 40925 ft | 467 kts | 123° |
| 2026-05-08 17:54 | 22.05451 | 49.63262 | 40925 ft | 467 kts | 123° |
| 2026-05-08 17:55 | 22.02066 | 49.69234 | 40924 ft | 467 kts | 123° |
| 2026-05-08 17:55 | 21.98678 | 49.75204 | 40917 ft | 467 kts | 123° |
| 2026-05-08 17:56 | 21.95287 | 49.81174 | 40915 ft | 467 kts | 123° |
| 2026-05-08 17:56 | 21.91897 | 49.87135 | 40915 ft | 467 kts | 123° |
| 2026-05-08 17:57 | 21.88503 | 49.93095 | 40916 ft | 467 kts | 123° |
| 2026-05-08 17:57 | 21.85106 | 49.99055 | 40916 ft | 467 kts | 123° |
| 2026-05-08 17:58 | 21.81709 | 50.05009 | 40916 ft | 467 kts | 123° |
| 2026-05-08 17:58 | 21.78309 | 50.10961 | 40916 ft | 467 kts | 123° |
| 2026-05-08 17:59 | 21.74908 | 50.16909 | 40915 ft | 467 kts | 123° |
| 2026-05-08 17:59 | 21.71527 | 50.22814 | 40915 ft | 467 kts | 123° |
| 2026-05-08 18:00 | 21.68673 | 50.27795 | 40916 ft | 467 kts | 123° |
| 2026-05-08 18:00 | 21.63009 | 50.37665 | 40916 ft | 467 kts | 123° |
| 2026-05-08 18:01 | 21.59602 | 50.43595 | 40915 ft | 466 kts | 123° |
| 2026-05-08 18:01 | 21.56189 | 50.49527 | 40915 ft | 466 kts | 123° |
| 2026-05-08 18:02 | 21.53330 | 50.54492 | 40903 ft | 466 kts | 123° |
| 2026-05-08 18:02 | 21.49363 | 50.61373 | 40888 ft | 466 kts | 123° |
| 2026-05-08 18:03 | 21.45947 | 50.67291 | 40890 ft | 466 kts | 123° |
| 2026-05-08 18:03 | 21.43097 | 50.72225 | 40890 ft | 466 kts | 124° |
| 2026-05-08 18:04 | 21.39679 | 50.78135 | 40888 ft | 466 kts | 124° |
| 2026-05-08 18:04 | 21.36261 | 50.84039 | 40882 ft | 466 kts | 124° |
| 2026-05-08 18:05 | 21.32838 | 50.89946 | 40888 ft | 466 kts | 124° |
| 2026-05-08 18:05 | 21.29416 | 50.95844 | 40890 ft | 466 kts | 124° |
| 2026-05-08 18:06 | 21.25990 | 51.01744 | 40890 ft | 466 kts | 124° |
| 2026-05-08 18:06 | 21.22566 | 51.07633 | 40888 ft | 466 kts | 124° |
| 2026-05-08 18:07 | 21.19139 | 51.13520 | 40896 ft | 465 kts | 124° |
| 2026-05-08 18:07 | 21.15706 | 51.19412 | 40906 ft | 466 kts | 124° |
| 2026-05-08 18:08 | 21.12271 | 51.25302 | 40906 ft | 466 kts | 124° |
| 2026-05-08 18:08 | 21.08835 | 51.31186 | 40905 ft | 466 kts | 124° |
| 2026-05-08 18:09 | 21.05398 | 51.37067 | 40896 ft | 466 kts | 124° |
| 2026-05-08 18:09 | 21.01957 | 51.42949 | 40888 ft | 466 kts | 124° |
| 2026-05-08 18:10 | 20.98517 | 51.48821 | 40890 ft | 466 kts | 124° |
| 2026-05-08 18:10 | 20.95076 | 51.54690 | 40890 ft | 466 kts | 124° |
| 2026-05-08 18:11 | 20.91634 | 51.60555 | 40890 ft | 465 kts | 124° |
| 2026-05-08 18:11 | 20.88190 | 51.66417 | 40880 ft | 465 kts | 124° |
| 2026-05-08 18:12 | 20.84745 | 51.72274 | 40881 ft | 465 kts | 124° |
| 2026-05-08 18:12 | 20.81299 | 51.78128 | 40874 ft | 465 kts | 124° |
| 2026-05-08 18:13 | 20.77851 | 51.83978 | 40873 ft | 465 kts | 124° |
| 2026-05-08 18:13 | 20.74426 | 51.89782 | 40880 ft | 465 kts | 124° |
| 2026-05-08 18:14 | 20.70955 | 51.95660 | 40880 ft | 465 kts | 124° |
| 2026-05-08 18:14 | 20.67504 | 52.01497 | 40881 ft | 465 kts | 124° |
| 2026-05-08 18:15 | 20.64049 | 52.07335 | 40879 ft | 467 kts | 124° |
| 2026-05-08 18:15 | 20.60582 | 52.13186 | 40877 ft | 472 kts | 124° |
| 2026-05-08 18:16 | 20.57050 | 52.19141 | 40886 ft | 478 kts | 124° |
| 2026-05-08 18:16 | 20.53475 | 52.25163 | 40889 ft | 483 kts | 124° |
| 2026-05-08 18:17 | 20.49860 | 52.31246 | 40889 ft | 487 kts | 124° |
| 2026-05-08 18:17 | 20.46230 | 52.37350 | 40888 ft | 487 kts | 124° |
| 2026-05-08 18:18 | 20.42598 | 52.43450 | 40890 ft | 487 kts | 124° |
| 2026-05-08 18:18 | 20.38960 | 52.49552 | 40878 ft | 488 kts | 124° |
| 2026-05-08 18:19 | 20.35322 | 52.55649 | 40888 ft | 487 kts | 124° |
| 2026-05-08 18:19 | 20.31681 | 52.61742 | 40889 ft | 488 kts | 124° |
| 2026-05-08 18:20 | 20.28037 | 52.67836 | 40890 ft | 488 kts | 124° |
| 2026-05-08 18:20 | 20.24388 | 52.73931 | 40890 ft | 488 kts | 124° |
| 2026-05-08 18:21 | 20.20740 | 52.80019 | 40890 ft | 488 kts | 124° |
| 2026-05-08 18:21 | 20.17088 | 52.86106 | 40885 ft | 488 kts | 124° |
| 2026-05-08 18:22 | 20.13433 | 52.92192 | 40888 ft | 488 kts | 124° |
| 2026-05-08 18:22 | 20.09777 | 52.98274 | 40890 ft | 488 kts | 124° |
| 2026-05-08 18:23 | 20.06116 | 53.04358 | 40884 ft | 488 kts | 124° |
| 2026-05-08 18:23 | 20.02451 | 53.10441 | 40888 ft | 488 kts | 124° |
| 2026-05-08 18:24 | 19.98785 | 53.16521 | 40887 ft | 488 kts | 124° |
| 2026-05-08 18:24 | 19.95120 | 53.22592 | 40890 ft | 488 kts | 124° |
| 2026-05-08 18:25 | 19.91455 | 53.28657 | 40888 ft | 488 kts | 124° |
| 2026-05-08 18:25 | 19.87787 | 53.34721 | 40880 ft | 488 kts | 124° |
| 2026-05-08 18:26 | 19.84117 | 53.40782 | 40888 ft | 488 kts | 124° |
| 2026-05-08 18:26 | 19.80441 | 53.46847 | 40890 ft | 488 kts | 124° |
| 2026-05-08 18:27 | 19.77386 | 53.51882 | 40890 ft | 488 kts | 124° |
| 2026-05-08 18:27 | 19.73087 | 53.58962 | 40898 ft | 488 kts | 124° |
| 2026-05-08 18:28 | 19.69405 | 53.65018 | 40893 ft | 488 kts | 124° |
| 2026-05-08 18:28 | 19.65722 | 53.71069 | 40901 ft | 488 kts | 124° |
| 2026-05-08 18:29 | 19.62061 | 53.77137 | 40896 ft | 489 kts | 121° |
| 2026-05-08 18:29 | 19.59416 | 53.83789 | 40899 ft | 492 kts | 110° |
| 2026-05-08 18:30 | 19.57389 | 53.90718 | 40896 ft | 492 kts | 108° |
| 2026-05-08 18:30 | 19.55478 | 53.97688 | 40892 ft | 492 kts | 108° |
| 2026-05-08 18:31 | 19.53557 | 54.04650 | 40899 ft | 492 kts | 108° |
| 2026-05-08 18:31 | 19.51621 | 54.11556 | 40893 ft | 492 kts | 108° |
| 2026-05-08 18:32 | 19.49659 | 54.18505 | 40888 ft | 492 kts | 108° |
| 2026-05-08 18:32 | 19.47695 | 54.25444 | 40883 ft | 492 kts | 108° |
| 2026-05-08 18:33 | 19.45730 | 54.32384 | 40884 ft | 491 kts | 108° |
| 2026-05-08 18:33 | 19.43764 | 54.39315 | 40888 ft | 491 kts | 108° |
| 2026-05-08 18:34 | 19.41796 | 54.46244 | 40888 ft | 491 kts | 108° |
| 2026-05-08 18:34 | 19.39827 | 54.53167 | 40880 ft | 491 kts | 108° |
| 2026-05-08 18:35 | 19.37856 | 54.60085 | 40880 ft | 491 kts | 108° |
| 2026-05-08 18:35 | 19.35883 | 54.66996 | 40873 ft | 490 kts | 108° |
| 2026-05-08 18:36 | 19.33907 | 54.73910 | 40879 ft | 490 kts | 108° |
| 2026-05-08 18:36 | 19.31930 | 54.80817 | 40881 ft | 490 kts | 108° |
| 2026-05-08 18:37 | 19.29953 | 54.87716 | 40876 ft | 490 kts | 108° |
| 2026-05-08 18:37 | 19.27970 | 54.94619 | 40879 ft | 490 kts | 108° |
| 2026-05-08 18:38 | 19.25988 | 55.01510 | 40883 ft | 490 kts | 108° |
| 2026-05-08 18:38 | 19.24003 | 55.08404 | 40877 ft | 489 kts | 108° |
| 2026-05-08 18:39 | 19.22016 | 55.15293 | 40881 ft | 489 kts | 108° |
| 2026-05-08 18:39 | 19.20027 | 55.22176 | 40879 ft | 489 kts | 108° |
| 2026-05-08 18:40 | 19.18034 | 55.29062 | 40875 ft | 489 kts | 108° |
| 2026-05-08 18:40 | 19.16042 | 55.35937 | 40874 ft | 489 kts | 108° |
| 2026-05-08 18:41 | 19.14045 | 55.42817 | 40880 ft | 489 kts | 108° |
| 2026-05-08 18:41 | 19.12047 | 55.49690 | 40880 ft | 489 kts | 108° |
| 2026-05-08 18:42 | 19.10045 | 55.56566 | 40873 ft | 489 kts | 108° |
| 2026-05-08 18:42 | 19.08045 | 55.63428 | 40878 ft | 489 kts | 108° |
| 2026-05-08 18:43 | 19.06039 | 55.70295 | 40876 ft | 489 kts | 108° |
| 2026-05-08 18:43 | 19.04029 | 55.77158 | 40883 ft | 489 kts | 108° |
| 2026-05-08 18:44 | 19.02013 | 55.84017 | 40883 ft | 489 kts | 108° |
| 2026-05-08 18:44 | 18.99995 | 55.90872 | 40862 ft | 489 kts | 108° |
| 2026-05-08 18:45 | 18.97974 | 55.97725 | 40872 ft | 488 kts | 108° |
| 2026-05-08 18:45 | 18.96280 | 56.03460 | 40879 ft | 488 kts | 108° |
| 2026-05-08 18:46 | 18.94266 | 56.10260 | 40861 ft | 488 kts | 108° |
| 2026-05-08 18:46 | 18.92236 | 56.17097 | 40877 ft | 488 kts | 108° |
| 2026-05-08 18:47 | 18.90204 | 56.23931 | 40868 ft | 488 kts | 108° |
| 2026-05-08 18:47 | 18.88171 | 56.30761 | 40862 ft | 488 kts | 108° |
| 2026-05-08 18:48 | 18.86133 | 56.37594 | 40877 ft | 488 kts | 108° |
| 2026-05-08 18:48 | 18.84095 | 56.44422 | 40861 ft | 488 kts | 108° |
| 2026-05-08 18:49 | 18.82054 | 56.51249 | 40868 ft | 488 kts | 108° |
| 2026-05-08 18:49 | 18.80011 | 56.58073 | 40862 ft | 488 kts | 108° |
| 2026-05-08 18:50 | 18.77965 | 56.64896 | 40879 ft | 488 kts | 108° |
| 2026-05-08 18:50 | 18.75917 | 56.71715 | 40860 ft | 488 kts | 108° |
| 2026-05-08 18:51 | 18.73866 | 56.78535 | 40859 ft | 488 kts | 108° |
| 2026-05-08 18:51 | 18.71813 | 56.85352 | 40860 ft | 488 kts | 108° |
| 2026-05-08 18:52 | 18.69758 | 56.92166 | 40861 ft | 488 kts | 108° |
| 2026-05-08 18:52 | 18.67700 | 56.98978 | 40860 ft | 488 kts | 108° |
| 2026-05-08 18:53 | 18.65639 | 57.05793 | 40859 ft | 487 kts | 108° |
| 2026-05-08 18:53 | 18.63577 | 57.12600 | 40860 ft | 488 kts | 108° |
| 2026-05-08 18:54 | 18.61512 | 57.19409 | 40860 ft | 488 kts | 108° |
| 2026-05-08 18:54 | 18.59444 | 57.26218 | 40860 ft | 487 kts | 108° |
| 2026-05-08 18:55 | 18.56338 | 57.36424 | 40860 ft | 487 kts | 108° |
| 2026-05-08 18:56 | 18.54266 | 57.43219 | 40860 ft | 487 kts | 108° |
| 2026-05-08 18:56 | 18.52190 | 57.50021 | 40860 ft | 487 kts | 108° |
| 2026-05-08 18:57 | 18.50113 | 57.56816 | 40860 ft | 487 kts | 108° |
| 2026-05-08 18:57 | 18.48033 | 57.63610 | 40860 ft | 487 kts | 109° |
| 2026-05-08 18:58 | 18.45950 | 57.70402 | 40859 ft | 487 kts | 109° |
| 2026-05-08 18:58 | 18.43865 | 57.77194 | 40860 ft | 487 kts | 109° |
| 2026-05-08 18:59 | 18.41781 | 57.83976 | 40860 ft | 487 kts | 109° |
| 2026-05-08 18:59 | 18.39691 | 57.90764 | 40859 ft | 487 kts | 109° |
| 2026-05-08 19:00 | 18.37600 | 57.97545 | 40860 ft | 487 kts | 109° |
| 2026-05-08 19:00 | 18.35499 | 58.04321 | 40860 ft | 487 kts | 109° |
| 2026-05-08 19:01 | 18.33391 | 58.11094 | 40859 ft | 487 kts | 109° |
| 2026-05-08 19:01 | 18.31281 | 58.17866 | 40860 ft | 487 kts | 109° |
| 2026-05-08 19:02 | 18.29169 | 58.24636 | 40854 ft | 487 kts | 109° |
| 2026-05-08 19:02 | 18.27055 | 58.31406 | 40857 ft | 487 kts | 109° |
| 2026-05-08 19:03 | 18.24939 | 58.38174 | 40860 ft | 487 kts | 109° |
| 2026-05-08 19:03 | 18.22818 | 58.44945 | 40860 ft | 487 kts | 109° |
| 2026-05-08 19:04 | 18.20697 | 58.51711 | 40860 ft | 487 kts | 109° |
| 2026-05-08 19:04 | 18.18572 | 58.58477 | 40861 ft | 487 kts | 109° |
| 2026-05-08 19:05 | 18.16446 | 58.65240 | 40859 ft | 487 kts | 109° |
| 2026-05-08 19:05 | 18.14316 | 58.72004 | 40860 ft | 487 kts | 109° |
| 2026-05-08 19:06 | 18.12184 | 58.78766 | 40860 ft | 487 kts | 109° |
| 2026-05-08 19:06 | 18.10048 | 58.85531 | 40861 ft | 487 kts | 109° |
| 2026-05-08 19:07 | 18.07912 | 58.92286 | 40860 ft | 487 kts | 109° |
| 2026-05-08 19:07 | 18.05772 | 58.99049 | 40860 ft | 487 kts | 109° |
| 2026-05-08 19:08 | 18.03629 | 59.05807 | 40859 ft | 487 kts | 109° |
| 2026-05-08 19:08 | 18.01485 | 59.12564 | 40860 ft | 487 kts | 109° |
| 2026-05-08 19:09 | 17.99338 | 59.19317 | 40860 ft | 487 kts | 109° |
| 2026-05-08 19:09 | 17.97191 | 59.26064 | 40860 ft | 487 kts | 109° |
| 2026-05-08 19:10 | 17.95042 | 59.32809 | 40860 ft | 487 kts | 109° |
| 2026-05-08 19:10 | 17.92890 | 59.39552 | 40862 ft | 487 kts | 109° |
| 2026-05-08 19:11 | 17.90736 | 59.46294 | 40877 ft | 487 kts | 109° |
| 2026-05-08 19:11 | 17.88578 | 59.53038 | 40873 ft | 487 kts | 109° |
| 2026-05-08 19:12 | 17.86418 | 59.59779 | 40861 ft | 487 kts | 109° |
| 2026-05-08 19:12 | 17.84257 | 59.66517 | 40877 ft | 487 kts | 109° |
| 2026-05-08 19:13 | 17.82093 | 59.73253 | 40875 ft | 487 kts | 109° |
| 2026-05-08 19:13 | 17.79926 | 59.79993 | 40861 ft | 487 kts | 109° |
| 2026-05-08 19:14 | 17.77772 | 59.86680 | 40874 ft | 487 kts | 109° |
| 2026-05-08 19:14 | 17.75600 | 59.93415 | 40861 ft | 487 kts | 109° |
| 2026-05-08 19:15 | 17.73508 | 60.00176 | 40876 ft | 487 kts | 105° |
| 2026-05-08 19:15 | 17.71866 | 60.07075 | 40861 ft | 488 kts | 104° |
| 2026-05-08 19:16 | 17.70315 | 60.13994 | 40869 ft | 488 kts | 103° |
| 2026-05-08 19:16 | 17.68778 | 60.20925 | 40861 ft | 488 kts | 103° |
| 2026-05-08 19:17 | 17.67234 | 60.27849 | 40872 ft | 488 kts | 104° |
| 2026-05-08 19:17 | 17.65681 | 60.34767 | 40861 ft | 488 kts | 104° |
| 2026-05-08 19:18 | 17.64123 | 60.41687 | 40867 ft | 488 kts | 104° |
| 2026-05-08 19:18 | 17.62562 | 60.48605 | 40862 ft | 488 kts | 104° |
| 2026-05-08 19:19 | 17.61000 | 60.55524 | 40872 ft | 488 kts | 104° |
| 2026-05-08 19:19 | 17.59435 | 60.62441 | 40873 ft | 488 kts | 104° |
| 2026-05-08 19:20 | 17.57867 | 60.69357 | 40874 ft | 488 kts | 104° |
| 2026-05-08 19:20 | 17.56298 | 60.76272 | 40875 ft | 488 kts | 104° |
| 2026-05-08 19:21 | 17.54725 | 60.83186 | 40861 ft | 488 kts | 104° |
| 2026-05-08 19:21 | 17.53150 | 60.90100 | 40867 ft | 488 kts | 104° |
| 2026-05-08 19:22 | 17.51573 | 60.97014 | 40861 ft | 488 kts | 104° |
| 2026-05-08 19:22 | 17.49992 | 61.03930 | 40879 ft | 488 kts | 104° |
| 2026-05-08 19:23 | 17.48410 | 61.10843 | 40862 ft | 488 kts | 104° |
| 2026-05-08 19:23 | 17.46824 | 61.17755 | 40875 ft | 488 kts | 104° |
| 2026-05-08 19:24 | 17.45236 | 61.24670 | 40877 ft | 488 kts | 104° |
| 2026-05-08 19:24 | 17.43645 | 61.31582 | 40861 ft | 488 kts | 104° |
| 2026-05-08 19:25 | 17.42052 | 61.38496 | 40877 ft | 488 kts | 104° |
| 2026-05-08 19:25 | 17.40456 | 61.45410 | 40862 ft | 489 kts | 104° |
| 2026-05-08 19:26 | 17.38856 | 61.52325 | 40868 ft | 489 kts | 104° |
| 2026-05-08 19:26 | 17.37255 | 61.59238 | 40876 ft | 489 kts | 104° |
| 2026-05-08 19:27 | 17.35652 | 61.66149 | 40872 ft | 489 kts | 104° |
| 2026-05-08 19:27 | 17.34044 | 61.73065 | 40877 ft | 489 kts | 104° |
| 2026-05-08 19:28 | 17.32696 | 61.78857 | 40879 ft | 489 kts | 104° |
| 2026-05-08 19:28 | 17.31085 | 61.85768 | 40862 ft | 489 kts | 104° |
| 2026-05-08 19:29 | 17.29472 | 61.92675 | 40875 ft | 489 kts | 104° |
| 2026-05-08 19:29 | 17.27857 | 61.99582 | 40875 ft | 489 kts | 104° |
| 2026-05-08 19:30 | 17.26249 | 62.06444 | 40857 ft | 489 kts | 104° |
| 2026-05-08 19:30 | 17.24628 | 62.13353 | 40874 ft | 489 kts | 104° |
| 2026-05-08 19:31 | 17.23005 | 62.20259 | 40861 ft | 489 kts | 104° |
| 2026-05-08 19:31 | 17.21380 | 62.27162 | 40864 ft | 489 kts | 104° |
| 2026-05-08 19:32 | 17.19753 | 62.34065 | 40861 ft | 489 kts | 104° |
| 2026-05-08 19:32 | 17.18123 | 62.40967 | 40861 ft | 489 kts | 104° |
| 2026-05-08 19:33 | 17.16493 | 62.47858 | 40860 ft | 488 kts | 104° |
| 2026-05-08 19:33 | 17.14859 | 62.54754 | 40859 ft | 488 kts | 104° |
| 2026-05-08 19:34 | 17.13223 | 62.61645 | 40861 ft | 489 kts | 104° |
| 2026-05-08 19:34 | 17.11585 | 62.68538 | 40860 ft | 489 kts | 104° |
| 2026-05-08 19:35 | 17.09944 | 62.75428 | 40861 ft | 489 kts | 104° |
| 2026-05-08 19:35 | 17.08300 | 62.82323 | 40860 ft | 489 kts | 104° |
| 2026-05-08 19:36 | 17.06655 | 62.89212 | 40852 ft | 489 kts | 104° |
| 2026-05-08 19:36 | 17.05008 | 62.96098 | 40859 ft | 488 kts | 104° |
| 2026-05-08 19:37 | 17.03358 | 63.02986 | 40859 ft | 489 kts | 104° |
| 2026-05-08 19:37 | 17.01924 | 63.09919 | 40861 ft | 489 kts | 96° |
| 2026-05-08 19:38 | 17.02235 | 63.16989 | 40860 ft | 489 kts | 80° |
| 2026-05-08 19:38 | 17.03627 | 63.23948 | 40859 ft | 489 kts | 77° |
| 2026-05-08 19:39 | 17.05214 | 63.30867 | 40859 ft | 490 kts | 76° |
| 2026-05-08 19:39 | 17.06797 | 63.37785 | 40860 ft | 490 kts | 77° |
| 2026-05-08 19:40 | 17.08347 | 63.44718 | 40860 ft | 490 kts | 77° |
| 2026-05-08 19:40 | 17.09879 | 63.51652 | 40860 ft | 490 kts | 77° |
| 2026-05-08 19:41 | 17.11405 | 63.58588 | 40860 ft | 490 kts | 77° |
| 2026-05-08 19:41 | 17.12930 | 63.65525 | 40860 ft | 490 kts | 77° |
| 2026-05-08 19:42 | 17.14454 | 63.72460 | 40861 ft | 490 kts | 77° |
| 2026-05-08 19:42 | 17.15976 | 63.79404 | 40860 ft | 490 kts | 77° |
| 2026-05-08 19:43 | 17.17497 | 63.86349 | 40860 ft | 490 kts | 77° |
| 2026-05-08 19:43 | 17.19015 | 63.93295 | 40859 ft | 490 kts | 77° |
| 2026-05-08 19:44 | 17.20531 | 64.00245 | 40860 ft | 490 kts | 77° |
| 2026-05-08 19:44 | 17.22035 | 64.07153 | 40859 ft | 491 kts | 77° |
| 2026-05-08 19:45 | 17.23550 | 64.14119 | 40860 ft | 491 kts | 77° |
| 2026-05-08 19:45 | 17.25070 | 64.21122 | 40860 ft | 491 kts | 77° |
| 2026-05-08 19:46 | 17.26557 | 64.28095 | 40858 ft | 491 kts | 80° |
| 2026-05-08 19:46 | 17.26045 | 64.38677 | 40860 ft | 490 kts | 109° |
| 2026-05-08 19:47 | 17.22937 | 64.44988 | 40859 ft | 490 kts | 123° |
| 2026-05-08 19:47 | 17.19035 | 64.50832 | 40860 ft | 490 kts | 126° |
| 2026-05-08 19:48 | 17.15027 | 64.56588 | 40860 ft | 490 kts | 126° |
| 2026-05-08 19:48 | 17.11044 | 64.62362 | 40860 ft | 489 kts | 126° |
| 2026-05-08 19:49 | 17.07092 | 64.68152 | 40860 ft | 489 kts | 126° |
| 2026-05-08 19:49 | 17.03150 | 64.73947 | 40860 ft | 489 kts | 126° |
| 2026-05-08 19:50 | 16.99208 | 64.79738 | 40860 ft | 489 kts | 126° |
| 2026-05-08 19:50 | 16.95287 | 64.85491 | 40860 ft | 489 kts | 126° |
| 2026-05-08 19:51 | 16.91341 | 64.91275 | 40860 ft | 489 kts | 126° |
| 2026-05-08 19:51 | 16.87393 | 64.97055 | 40860 ft | 489 kts | 126° |
| 2026-05-08 19:52 | 16.83446 | 65.02830 | 40851 ft | 489 kts | 126° |
| 2026-05-08 19:52 | 16.79498 | 65.08601 | 40851 ft | 488 kts | 126° |
| 2026-05-08 19:53 | 16.75548 | 65.14371 | 40851 ft | 488 kts | 126° |
| 2026-05-08 19:53 | 16.71601 | 65.20130 | 40851 ft | 488 kts | 126° |
| 2026-05-08 19:54 | 16.67649 | 65.25894 | 40851 ft | 488 kts | 126° |
| 2026-05-08 19:54 | 16.63699 | 65.31650 | 40848 ft | 488 kts | 126° |
| 2026-05-08 19:55 | 16.59747 | 65.37403 | 40841 ft | 488 kts | 126° |
| 2026-05-08 19:55 | 16.55796 | 65.43151 | 40841 ft | 488 kts | 126° |
| 2026-05-08 19:56 | 16.51844 | 65.48895 | 40841 ft | 488 kts | 126° |
| 2026-05-08 19:56 | 16.47890 | 65.54638 | 40841 ft | 487 kts | 126° |
| 2026-05-08 19:57 | 16.43938 | 65.60373 | 40841 ft | 487 kts | 126° |
| 2026-05-08 19:57 | 16.39986 | 65.66104 | 40841 ft | 487 kts | 126° |
| 2026-05-08 19:58 | 16.36030 | 65.71836 | 40841 ft | 487 kts | 126° |
| 2026-05-08 19:58 | 16.32075 | 65.77561 | 40833 ft | 487 kts | 126° |
| 2026-05-08 19:59 | 16.28118 | 65.83284 | 40832 ft | 487 kts | 126° |
| 2026-05-08 19:59 | 16.24162 | 65.89002 | 40832 ft | 487 kts | 126° |
| 2026-05-08 20:00 | 16.20205 | 65.94718 | 40832 ft | 487 kts | 126° |
| 2026-05-08 20:00 | 16.16248 | 66.00429 | 40832 ft | 487 kts | 126° |
| 2026-05-08 20:01 | 16.12290 | 66.06135 | 40832 ft | 487 kts | 126° |
| 2026-05-08 20:01 | 16.08330 | 66.11842 | 40832 ft | 487 kts | 126° |
| 2026-05-08 20:02 | 16.04368 | 66.17545 | 40832 ft | 487 kts | 126° |
| 2026-05-08 20:02 | 16.00402 | 66.23251 | 40823 ft | 487 kts | 126° |
| 2026-05-08 20:03 | 15.96439 | 66.28949 | 40822 ft | 486 kts | 126° |
| 2026-05-08 20:03 | 15.92472 | 66.34647 | 40823 ft | 487 kts | 126° |
| 2026-05-08 20:04 | 15.88503 | 66.40343 | 40823 ft | 487 kts | 126° |
| 2026-05-08 20:04 | 15.84534 | 66.46035 | 40823 ft | 487 kts | 126° |
| 2026-05-08 20:05 | 15.80561 | 66.51729 | 40823 ft | 486 kts | 126° |
| 2026-05-08 20:05 | 15.76590 | 66.57415 | 40823 ft | 486 kts | 126° |
| 2026-05-08 20:06 | 15.72618 | 66.63099 | 40823 ft | 486 kts | 126° |
| 2026-05-08 20:06 | 15.68647 | 66.68777 | 40823 ft | 486 kts | 126° |
| 2026-05-08 20:07 | 15.64672 | 66.74457 | 40823 ft | 486 kts | 126° |
| 2026-05-08 20:07 | 15.60723 | 66.80094 | 40823 ft | 486 kts | 126° |
| 2026-05-08 20:08 | 15.56760 | 66.85774 | 40823 ft | 486 kts | 126° |
| 2026-05-08 20:08 | 15.52830 | 66.91479 | 40823 ft | 486 kts | 126° |
| 2026-05-08 20:09 | 15.48908 | 66.97184 | 40823 ft | 486 kts | 126° |
| 2026-05-08 20:09 | 15.44983 | 67.02885 | 40823 ft | 486 kts | 126° |
| 2026-05-08 20:10 | 15.41687 | 67.07662 | 40823 ft | 486 kts | 126° |
| 2026-05-08 20:10 | 15.37118 | 67.14278 | 40823 ft | 486 kts | 126° |
| 2026-05-08 20:11 | 15.33822 | 67.19047 | 40823 ft | 486 kts | 126° |
| 2026-05-08 20:11 | 15.29887 | 67.24737 | 40823 ft | 486 kts | 126° |
| 2026-05-08 20:12 | 15.25952 | 67.30423 | 40823 ft | 486 kts | 126° |
| 2026-05-08 20:12 | 15.22016 | 67.36106 | 40823 ft | 486 kts | 126° |
| 2026-05-08 20:13 | 15.18104 | 67.41751 | 40823 ft | 486 kts | 126° |
| 2026-05-08 20:13 | 15.14165 | 67.47429 | 40823 ft | 486 kts | 126° |
| 2026-05-08 20:14 | 15.10225 | 67.53106 | 40823 ft | 486 kts | 126° |
| 2026-05-08 20:14 | 15.06284 | 67.58779 | 40823 ft | 486 kts | 126° |
| 2026-05-08 20:15 | 15.02341 | 67.64452 | 40823 ft | 485 kts | 126° |
| 2026-05-08 20:15 | 14.98402 | 67.70116 | 40823 ft | 485 kts | 126° |
| 2026-05-08 20:16 | 14.94462 | 67.75775 | 40823 ft | 485 kts | 126° |
| 2026-05-08 20:16 | 14.90525 | 67.81427 | 40823 ft | 484 kts | 126° |
| 2026-05-08 20:17 | 14.86583 | 67.87081 | 40823 ft | 484 kts | 126° |
| 2026-05-08 20:17 | 14.82647 | 67.92723 | 40823 ft | 484 kts | 126° |
| 2026-05-08 20:18 | 14.78711 | 67.98362 | 40823 ft | 484 kts | 126° |
| 2026-05-08 20:18 | 14.74775 | 68.03996 | 40823 ft | 484 kts | 126° |
| 2026-05-08 20:19 | 14.70840 | 68.09625 | 40823 ft | 483 kts | 126° |
| 2026-05-08 20:19 | 14.66903 | 68.15252 | 40823 ft | 483 kts | 126° |
| 2026-05-08 20:20 | 14.62966 | 68.20875 | 40823 ft | 483 kts | 126° |
| 2026-05-08 20:20 | 14.59027 | 68.26498 | 40823 ft | 483 kts | 126° |
| 2026-05-08 20:21 | 14.55091 | 68.32113 | 40822 ft | 483 kts | 126° |
| 2026-05-08 20:21 | 14.51154 | 68.37725 | 40823 ft | 483 kts | 126° |
| 2026-05-08 20:22 | 14.47215 | 68.43335 | 40823 ft | 483 kts | 126° |
| 2026-05-08 20:22 | 14.43276 | 68.48943 | 40823 ft | 483 kts | 126° |
| 2026-05-08 20:23 | 14.39335 | 68.54548 | 40823 ft | 483 kts | 126° |
| 2026-05-08 20:23 | 14.35389 | 68.60158 | 40823 ft | 483 kts | 126° |
| 2026-05-08 20:24 | 14.31442 | 68.65764 | 40823 ft | 483 kts | 126° |
| 2026-05-08 20:24 | 14.27493 | 68.71369 | 40823 ft | 483 kts | 126° |
| 2026-05-08 20:25 | 14.23541 | 68.76975 | 40823 ft | 483 kts | 126° |
| 2026-05-08 20:25 | 14.19593 | 68.82572 | 40823 ft | 483 kts | 126° |
| 2026-05-08 20:26 | 14.15640 | 68.88173 | 40823 ft | 483 kts | 126° |
| 2026-05-08 20:26 | 14.11681 | 68.93778 | 40823 ft | 484 kts | 126° |
| 2026-05-08 20:27 | 14.07752 | 68.99342 | 40823 ft | 483 kts | 126° |
| 2026-05-08 20:27 | 14.03819 | 69.04959 | 40823 ft | 483 kts | 126° |
| 2026-05-08 20:28 | 13.99891 | 69.10584 | 40823 ft | 484 kts | 126° |
| 2026-05-08 20:28 | 13.95966 | 69.16197 | 40822 ft | 482 kts | 126° |
| 2026-05-08 20:29 | 13.92045 | 69.21798 | 40823 ft | 482 kts | 126° |
| 2026-05-08 20:29 | 13.88120 | 69.27398 | 40823 ft | 482 kts | 126° |
| 2026-05-08 20:30 | 13.84192 | 69.32998 | 40823 ft | 483 kts | 126° |
| 2026-05-08 20:30 | 13.80261 | 69.38600 | 40823 ft | 483 kts | 126° |
| 2026-05-08 20:31 | 13.76327 | 69.44202 | 40823 ft | 483 kts | 126° |
| 2026-05-08 20:31 | 13.72393 | 69.49801 | 40823 ft | 483 kts | 126° |
| 2026-05-08 20:32 | 13.68453 | 69.55404 | 40823 ft | 483 kts | 126° |
| 2026-05-08 20:32 | 13.64510 | 69.61009 | 40823 ft | 483 kts | 126° |
| 2026-05-08 20:33 | 13.60567 | 69.66608 | 40823 ft | 483 kts | 126° |
| 2026-05-08 20:33 | 13.56625 | 69.72204 | 40823 ft | 483 kts | 126° |
| 2026-05-08 20:34 | 13.52680 | 69.77800 | 40823 ft | 483 kts | 126° |
| 2026-05-08 20:35 | 13.46761 | 69.86189 | 40823 ft | 483 kts | 126° |
| 2026-05-08 20:35 | 13.42817 | 69.91774 | 40823 ft | 483 kts | 126° |
| 2026-05-08 20:36 | 13.38871 | 69.97359 | 40816 ft | 483 kts | 126° |
| 2026-05-08 20:36 | 13.34925 | 70.02940 | 40813 ft | 483 kts | 126° |
| 2026-05-08 20:37 | 13.30981 | 70.08516 | 40813 ft | 482 kts | 126° |
| 2026-05-08 20:37 | 13.27038 | 70.14086 | 40814 ft | 482 kts | 126° |
| 2026-05-08 20:38 | 13.23095 | 70.19652 | 40813 ft | 482 kts | 126° |
| 2026-05-08 20:38 | 13.19152 | 70.25215 | 40813 ft | 481 kts | 126° |
| 2026-05-08 20:39 | 13.15213 | 70.30769 | 40813 ft | 481 kts | 126° |
| 2026-05-08 20:39 | 13.11275 | 70.36317 | 40813 ft | 481 kts | 126° |
| 2026-05-08 20:40 | 13.07338 | 70.41862 | 40813 ft | 481 kts | 126° |
| 2026-05-08 20:40 | 13.03421 | 70.47366 | 40814 ft | 480 kts | 126° |
| 2026-05-08 20:41 | 12.99469 | 70.52889 | 40813 ft | 480 kts | 126° |
| 2026-05-08 20:41 | 12.95510 | 70.58413 | 40813 ft | 480 kts | 126° |
| 2026-05-08 20:42 | 12.91557 | 70.63929 | 40813 ft | 480 kts | 126° |
| 2026-05-08 20:42 | 12.87605 | 70.69441 | 40813 ft | 480 kts | 126° |
| 2026-05-08 20:43 | 12.83652 | 70.74952 | 40814 ft | 479 kts | 126° |
| 2026-05-08 20:43 | 12.79702 | 70.80455 | 40813 ft | 479 kts | 126° |
| 2026-05-08 20:44 | 12.75752 | 70.85955 | 40813 ft | 479 kts | 126° |
| 2026-05-08 20:44 | 12.71798 | 70.91458 | 40813 ft | 479 kts | 126° |
| 2026-05-08 20:45 | 12.67845 | 70.96956 | 40814 ft | 479 kts | 126° |
| 2026-05-08 20:45 | 12.63895 | 71.02446 | 40832 ft | 479 kts | 126° |
| 2026-05-08 20:46 | 12.59945 | 71.07933 | 40832 ft | 479 kts | 126° |
| 2026-05-08 20:46 | 12.55992 | 71.13420 | 40832 ft | 479 kts | 126° |
| 2026-05-08 20:47 | 12.52040 | 71.18903 | 40832 ft | 478 kts | 126° |
| 2026-05-08 20:47 | 12.48091 | 71.24380 | 40832 ft | 478 kts | 126° |
| 2026-05-08 20:48 | 12.44141 | 71.29860 | 40832 ft | 478 kts | 126° |
| 2026-05-08 20:48 | 12.40196 | 71.35335 | 40832 ft | 478 kts | 126° |
| 2026-05-08 20:49 | 12.36252 | 71.40806 | 40832 ft | 478 kts | 126° |
| 2026-05-08 20:49 | 12.32307 | 71.46270 | 40832 ft | 477 kts | 126° |
| 2026-05-08 20:50 | 12.28364 | 71.51732 | 40832 ft | 477 kts | 126° |
| 2026-05-08 20:50 | 12.24418 | 71.57197 | 40832 ft | 477 kts | 126° |
| 2026-05-08 20:51 | 12.20478 | 71.62649 | 40831 ft | 477 kts | 126° |
| 2026-05-08 20:51 | 12.16536 | 71.68099 | 40823 ft | 477 kts | 126° |
| 2026-05-08 20:52 | 12.12592 | 71.73549 | 40823 ft | 477 kts | 126° |
| 2026-05-08 20:52 | 12.08651 | 71.78993 | 40823 ft | 476 kts | 126° |
| 2026-05-08 20:53 | 12.04710 | 71.84433 | 40823 ft | 476 kts | 126° |
| 2026-05-08 20:53 | 12.00767 | 71.89872 | 40823 ft | 476 kts | 126° |
| 2026-05-08 20:54 | 11.97490 | 71.94392 | 40823 ft | 476 kts | 126° |
| 2026-05-08 20:54 | 11.93737 | 71.99959 | 40823 ft | 476 kts | 118° |
| 2026-05-08 20:55 | 11.90970 | 72.06099 | 40831 ft | 476 kts | 113° |
| 2026-05-08 20:55 | 11.88456 | 72.12361 | 40832 ft | 476 kts | 112° |
| 2026-05-08 20:56 | 11.85990 | 72.18637 | 40832 ft | 476 kts | 112° |
| 2026-05-08 20:56 | 11.83509 | 72.24906 | 40832 ft | 476 kts | 112° |
| 2026-05-08 20:57 | 11.81012 | 72.31170 | 40832 ft | 476 kts | 112° |
| 2026-05-08 20:57 | 11.78508 | 72.37431 | 40832 ft | 476 kts | 112° |
| 2026-05-08 20:58 | 11.76003 | 72.43689 | 40832 ft | 476 kts | 112° |
| 2026-05-08 20:58 | 11.73498 | 72.49945 | 40832 ft | 476 kts | 112° |
| 2026-05-08 20:59 | 11.70992 | 72.56202 | 40832 ft | 476 kts | 112° |
| 2026-05-08 20:59 | 11.68484 | 72.62456 | 40832 ft | 476 kts | 112° |
| 2026-05-08 21:00 | 11.65975 | 72.68711 | 40832 ft | 476 kts | 112° |
| 2026-05-08 21:00 | 11.63463 | 72.74967 | 40832 ft | 476 kts | 112° |
| 2026-05-08 21:01 | 11.60953 | 72.81215 | 40832 ft | 476 kts | 112° |
| 2026-05-08 21:01 | 11.58443 | 72.87457 | 40832 ft | 476 kts | 112° |
| 2026-05-08 21:02 | 11.55931 | 72.93700 | 40832 ft | 476 kts | 112° |
| 2026-05-08 21:02 | 11.53419 | 72.99940 | 40832 ft | 476 kts | 112° |
| 2026-05-08 21:03 | 11.50904 | 73.06182 | 40832 ft | 476 kts | 112° |
| 2026-05-08 21:03 | 11.48388 | 73.12423 | 40832 ft | 476 kts | 112° |
| 2026-05-08 21:04 | 11.45872 | 73.18658 | 40832 ft | 476 kts | 112° |
| 2026-05-08 21:04 | 11.43369 | 73.24857 | 40832 ft | 476 kts | 112° |
| 2026-05-08 21:05 | 11.40847 | 73.31098 | 40832 ft | 476 kts | 112° |
| 2026-05-08 21:05 | 11.38324 | 73.37338 | 40832 ft | 476 kts | 112° |
| 2026-05-08 21:06 | 11.35798 | 73.43580 | 40832 ft | 476 kts | 112° |
| 2026-05-08 21:06 | 11.33270 | 73.49824 | 40827 ft | 476 kts | 112° |
| 2026-05-08 21:07 | 11.30743 | 73.56061 | 40813 ft | 476 kts | 112° |
| 2026-05-08 21:07 | 11.28200 | 73.62333 | 40805 ft | 480 kts | 113° |
| 2026-05-08 21:08 | 11.25647 | 73.68625 | 40804 ft | 481 kts | 113° |
| 2026-05-08 21:08 | 11.23091 | 73.74920 | 40804 ft | 481 kts | 113° |
| 2026-05-08 21:09 | 11.20534 | 73.81214 | 40804 ft | 481 kts | 113° |
| 2026-05-08 21:09 | 11.17975 | 73.87507 | 40796 ft | 481 kts | 113° |
| 2026-05-08 21:10 | 11.15415 | 73.93798 | 40795 ft | 481 kts | 113° |
| 2026-05-08 21:10 | 11.12854 | 74.00088 | 40795 ft | 481 kts | 113° |
| 2026-05-08 21:11 | 11.10291 | 74.06379 | 40804 ft | 481 kts | 113° |
| 2026-05-08 21:11 | 11.07726 | 74.12671 | 40804 ft | 481 kts | 113° |
| 2026-05-08 21:12 | 11.05161 | 74.18955 | 40804 ft | 481 kts | 113° |
| 2026-05-08 21:12 | 11.02596 | 74.25239 | 40804 ft | 481 kts | 113° |
| 2026-05-08 21:13 | 11.00031 | 74.31518 | 40804 ft | 481 kts | 113° |
| 2026-05-08 21:13 | 10.97462 | 74.37802 | 40804 ft | 481 kts | 113° |
| 2026-05-08 21:14 | 10.94895 | 74.44078 | 40804 ft | 481 kts | 113° |
| 2026-05-08 21:14 | 10.92325 | 74.50356 | 40808 ft | 481 kts | 113° |
| 2026-05-08 21:15 | 10.89753 | 74.56632 | 40804 ft | 481 kts | 113° |
| 2026-05-08 21:15 | 10.87181 | 74.62907 | 40804 ft | 481 kts | 113° |
| 2026-05-08 21:16 | 10.84607 | 74.69181 | 40804 ft | 481 kts | 113° |
| 2026-05-08 21:16 | 10.82032 | 74.75456 | 40804 ft | 481 kts | 113° |
| 2026-05-08 21:17 | 10.79454 | 74.81730 | 40804 ft | 481 kts | 113° |
| 2026-05-08 21:17 | 10.76878 | 74.87999 | 40804 ft | 481 kts | 113° |
| 2026-05-08 21:18 | 10.74299 | 74.94268 | 40806 ft | 481 kts | 113° |
| 2026-05-08 21:18 | 10.71719 | 75.00536 | 40814 ft | 480 kts | 113° |
| 2026-05-08 21:19 | 10.69138 | 75.06804 | 40813 ft | 480 kts | 113° |
| 2026-05-08 21:19 | 10.66557 | 75.13066 | 40813 ft | 480 kts | 113° |
| 2026-05-08 21:20 | 10.63974 | 75.19328 | 40813 ft | 480 kts | 113° |
| 2026-05-08 21:20 | 10.61391 | 75.25589 | 40813 ft | 480 kts | 113° |
| 2026-05-08 21:21 | 10.58805 | 75.31852 | 40810 ft | 481 kts | 113° |
| 2026-05-08 21:21 | 10.56218 | 75.38111 | 40808 ft | 481 kts | 113° |
| 2026-05-08 21:22 | 10.53629 | 75.44374 | 40804 ft | 481 kts | 113° |
| 2026-05-08 21:22 | 10.51039 | 75.50635 | 40804 ft | 481 kts | 113° |
| 2026-05-08 21:23 | 10.48446 | 75.56898 | 40804 ft | 481 kts | 113° |
| 2026-05-08 21:23 | 10.45852 | 75.63161 | 40804 ft | 481 kts | 114° |
| 2026-05-08 21:24 | 10.43257 | 75.69421 | 40804 ft | 481 kts | 114° |
| 2026-05-08 21:24 | 10.40661 | 75.75681 | 40804 ft | 481 kts | 114° |
| 2026-05-08 21:25 | 10.38084 | 75.81892 | 40804 ft | 481 kts | 114° |
| 2026-05-08 21:25 | 10.35484 | 75.88154 | 40804 ft | 481 kts | 114° |
| 2026-05-08 21:26 | 10.32884 | 75.94414 | 40804 ft | 481 kts | 114° |
| 2026-05-08 21:26 | 10.30285 | 76.00666 | 40814 ft | 481 kts | 114° |
| 2026-05-08 21:27 | 10.27684 | 76.06920 | 40813 ft | 481 kts | 114° |
| 2026-05-08 21:27 | 10.25081 | 76.13174 | 40804 ft | 481 kts | 114° |
| 2026-05-08 21:28 | 10.22477 | 76.19427 | 40804 ft | 481 kts | 114° |
| 2026-05-08 21:28 | 10.19871 | 76.25681 | 40804 ft | 481 kts | 114° |
| 2026-05-08 21:29 | 10.17261 | 76.31939 | 40804 ft | 481 kts | 114° |
| 2026-05-08 21:29 | 10.14662 | 76.38197 | 40804 ft | 481 kts | 113° |
| 2026-05-08 21:30 | 10.12154 | 76.44491 | 40804 ft | 481 kts | 112° |
| 2026-05-08 21:30 | 10.09681 | 76.50799 | 40804 ft | 481 kts | 112° |
| 2026-05-08 21:31 | 10.07202 | 76.57105 | 40804 ft | 481 kts | 112° |
| 2026-05-08 21:31 | 10.04714 | 76.63407 | 40804 ft | 481 kts | 112° |
| 2026-05-08 21:32 | 10.02220 | 76.69707 | 40813 ft | 481 kts | 112° |
| 2026-05-08 21:32 | 9.99724 | 76.76009 | 40813 ft | 481 kts | 112° |
| 2026-05-08 21:33 | 9.97231 | 76.82300 | 40814 ft | 481 kts | 112° |
| 2026-05-08 21:33 | 9.94737 | 76.88593 | 40822 ft | 480 kts | 112° |
| 2026-05-08 21:34 | 9.92242 | 76.94881 | 40822 ft | 480 kts | 112° |
| 2026-05-08 21:34 | 9.90468 | 77.01405 | 40823 ft | 482 kts | 98° |
| 2026-05-08 21:35 | 9.89814 | 77.08176 | 40813 ft | 483 kts | 95° |
| 2026-05-08 21:35 | 9.89382 | 77.14965 | 40813 ft | 483 kts | 94° |
| 2026-05-08 21:36 | 9.88977 | 77.21718 | 40813 ft | 483 kts | 94° |
| 2026-05-08 21:36 | 9.88541 | 77.28554 | 40813 ft | 483 kts | 94° |
| 2026-05-08 21:37 | 9.88091 | 77.35350 | 40814 ft | 483 kts | 95° |
| 2026-05-08 21:37 | 9.87639 | 77.42091 | 40813 ft | 483 kts | 95° |
| 2026-05-08 21:38 | 9.87182 | 77.48886 | 40819 ft | 483 kts | 95° |
| 2026-05-08 21:38 | 9.86799 | 77.54581 | 40823 ft | 483 kts | 95° |
| 2026-05-08 21:39 | 9.86341 | 77.61377 | 40822 ft | 483 kts | 95° |
| 2026-05-08 21:39 | 9.85882 | 77.68170 | 40822 ft | 483 kts | 95° |
| 2026-05-08 21:40 | 9.85425 | 77.74921 | 40828 ft | 483 kts | 95° |
| 2026-05-08 21:40 | 9.84963 | 77.81716 | 40832 ft | 483 kts | 95° |
| 2026-05-08 21:41 | 9.84267 | 77.91914 | 40832 ft | 483 kts | 95° |
| 2026-05-08 21:41 | 9.83802 | 77.98709 | 40832 ft | 483 kts | 95° |
| 2026-05-08 21:42 | 9.83334 | 78.05507 | 40832 ft | 483 kts | 95° |
| 2026-05-08 21:42 | 9.82021 | 78.12165 | 40832 ft | 482 kts | 107° |
| 2026-05-08 21:43 | 9.80026 | 78.18648 | 40832 ft | 482 kts | 109° |
| 2026-05-08 21:43 | 9.77903 | 78.25091 | 40832 ft | 482 kts | 109° |
| 2026-05-08 21:44 | 9.75777 | 78.31527 | 40827 ft | 482 kts | 109° |
| 2026-05-08 21:44 | 9.73665 | 78.37975 | 40823 ft | 482 kts | 109° |
| 2026-05-08 21:45 | 9.71562 | 78.44422 | 40823 ft | 482 kts | 109° |
| 2026-05-08 21:45 | 9.69460 | 78.50868 | 40823 ft | 481 kts | 109° |
| 2026-05-08 21:46 | 9.67359 | 78.57308 | 40823 ft | 481 kts | 109° |
| 2026-05-08 21:46 | 9.65254 | 78.63750 | 40823 ft | 481 kts | 109° |
| 2026-05-08 21:47 | 9.63149 | 78.70189 | 40823 ft | 481 kts | 109° |
| 2026-05-08 21:47 | 9.61043 | 78.76628 | 40823 ft | 481 kts | 109° |
| 2026-05-08 21:48 | 9.58938 | 78.83058 | 40823 ft | 481 kts | 109° |
| 2026-05-08 21:48 | 9.56829 | 78.89494 | 40823 ft | 481 kts | 109° |
| 2026-05-08 21:49 | 9.54720 | 78.95928 | 40822 ft | 481 kts | 109° |
| 2026-05-08 21:49 | 9.52611 | 79.02355 | 40823 ft | 481 kts | 109° |
| 2026-05-08 21:50 | 9.50500 | 79.08786 | 40823 ft | 481 kts | 109° |
| 2026-05-08 21:50 | 9.48382 | 79.15214 | 40823 ft | 481 kts | 109° |
| 2026-05-08 21:51 | 9.46247 | 79.21635 | 40823 ft | 481 kts | 109° |
| 2026-05-08 21:51 | 9.44107 | 79.28053 | 40813 ft | 481 kts | 109° |
| 2026-05-08 21:52 | 9.41968 | 79.34471 | 40813 ft | 481 kts | 109° |
| 2026-05-08 21:52 | 9.39830 | 79.40885 | 40813 ft | 481 kts | 109° |
| 2026-05-08 21:53 | 9.37690 | 79.47302 | 40813 ft | 481 kts | 109° |
| 2026-05-08 21:53 | 9.35549 | 79.53716 | 40813 ft | 481 kts | 109° |
| 2026-05-08 21:54 | 9.33406 | 79.60133 | 40804 ft | 481 kts | 109° |
| 2026-05-08 21:54 | 9.31265 | 79.66544 | 40804 ft | 481 kts | 109° |
| 2026-05-08 21:55 | 9.29142 | 79.72914 | 40804 ft | 480 kts | 109° |
| 2026-05-08 21:56 | 9.25939 | 79.82527 | 40804 ft | 480 kts | 109° |
| 2026-05-08 21:56 | 9.23802 | 79.88934 | 40804 ft | 480 kts | 109° |
| 2026-05-08 21:57 | 9.21663 | 79.95341 | 40804 ft | 480 kts | 109° |
| 2026-05-08 21:57 | 9.19523 | 80.01746 | 40796 ft | 480 kts | 109° |
| 2026-05-08 21:58 | 9.17380 | 80.08157 | 40795 ft | 481 kts | 109° |
| 2026-05-08 21:58 | 9.15236 | 80.14567 | 40795 ft | 481 kts | 109° |
| 2026-05-08 21:59 | 9.13090 | 80.20980 | 40795 ft | 481 kts | 109° |
| 2026-05-08 21:59 | 9.10944 | 80.27390 | 40795 ft | 481 kts | 109° |
| 2026-05-08 22:00 | 9.08795 | 80.33802 | 40795 ft | 481 kts | 109° |
| 2026-05-08 22:00 | 9.06646 | 80.40213 | 40795 ft | 481 kts | 109° |
| 2026-05-08 22:01 | 9.04496 | 80.46619 | 40795 ft | 481 kts | 109° |
| 2026-05-08 22:01 | 9.02346 | 80.53025 | 40795 ft | 481 kts | 109° |
| 2026-05-08 22:02 | 9.00193 | 80.59433 | 40795 ft | 481 kts | 109° |
| 2026-05-08 22:02 | 8.98038 | 80.65845 | 40795 ft | 481 kts | 109° |
| 2026-05-08 22:03 | 8.95883 | 80.72250 | 40795 ft | 481 kts | 109° |
| 2026-05-08 22:03 | 8.93728 | 80.78653 | 40795 ft | 481 kts | 109° |
| 2026-05-08 22:04 | 8.91571 | 80.85059 | 40785 ft | 481 kts | 109° |
| 2026-05-08 22:04 | 8.89411 | 80.91468 | 40794 ft | 481 kts | 109° |
| 2026-05-08 22:05 | 8.87254 | 80.97866 | 40795 ft | 481 kts | 109° |
| 2026-05-08 22:05 | 8.85094 | 81.04268 | 40795 ft | 481 kts | 109° |
| 2026-05-08 22:06 | 8.82932 | 81.10671 | 40794 ft | 481 kts | 109° |
| 2026-05-08 22:06 | 8.80768 | 81.17077 | 40787 ft | 482 kts | 109° |
| 2026-05-08 22:07 | 8.78602 | 81.23483 | 40785 ft | 482 kts | 109° |
| 2026-05-08 22:07 | 8.76435 | 81.29889 | 40785 ft | 482 kts | 109° |
| 2026-05-08 22:08 | 8.74267 | 81.36296 | 40786 ft | 482 kts | 109° |
| 2026-05-08 22:08 | 8.72098 | 81.42700 | 40786 ft | 482 kts | 109° |
| 2026-05-08 22:09 | 8.69929 | 81.49102 | 40785 ft | 482 kts | 109° |
| 2026-05-08 22:09 | 8.67756 | 81.55509 | 40785 ft | 482 kts | 109° |
| 2026-05-08 22:10 | 8.65584 | 81.61912 | 40785 ft | 482 kts | 109° |
| 2026-05-08 22:10 | 8.63411 | 81.68311 | 40785 ft | 482 kts | 109° |
| 2026-05-08 22:11 | 8.61238 | 81.74710 | 40785 ft | 482 kts | 109° |
| 2026-05-08 22:11 | 8.59061 | 81.81113 | 40785 ft | 482 kts | 109° |
| 2026-05-08 22:12 | 8.56885 | 81.87510 | 40807 ft | 481 kts | 109° |
| 2026-05-08 22:12 | 8.54708 | 81.93908 | 40804 ft | 481 kts | 109° |
| 2026-05-08 22:13 | 8.52532 | 82.00301 | 40804 ft | 481 kts | 109° |
| 2026-05-08 22:13 | 8.50353 | 82.06695 | 40804 ft | 481 kts | 109° |
| 2026-05-08 22:14 | 8.48173 | 82.13089 | 40804 ft | 481 kts | 109° |
| 2026-05-08 22:14 | 8.45993 | 82.19479 | 40804 ft | 481 kts | 109° |
| 2026-05-08 22:15 | 8.43812 | 82.25870 | 40804 ft | 481 kts | 109° |
| 2026-05-08 22:15 | 8.41630 | 82.32259 | 40804 ft | 481 kts | 109° |
| 2026-05-08 22:16 | 8.39447 | 82.38648 | 40804 ft | 481 kts | 109° |
| 2026-05-08 22:16 | 8.37263 | 82.45037 | 40804 ft | 481 kts | 109° |
| 2026-05-08 22:17 | 8.35078 | 82.51423 | 40804 ft | 481 kts | 109° |
| 2026-05-08 22:17 | 8.32890 | 82.57812 | 40804 ft | 481 kts | 109° |
| 2026-05-08 22:18 | 8.30705 | 82.64193 | 40804 ft | 481 kts | 109° |
| 2026-05-08 22:18 | 8.28516 | 82.70580 | 40804 ft | 481 kts | 109° |
| 2026-05-08 22:19 | 8.26327 | 82.76965 | 40804 ft | 482 kts | 109° |
| 2026-05-08 22:19 | 8.24134 | 82.83357 | 40804 ft | 481 kts | 109° |
| 2026-05-08 22:20 | 8.21988 | 82.89706 | 40804 ft | 481 kts | 108° |
| 2026-05-08 22:20 | 8.19928 | 82.96140 | 40804 ft | 481 kts | 108° |
| 2026-05-08 22:21 | 8.17892 | 83.02575 | 40804 ft | 481 kts | 108° |
| 2026-05-08 22:21 | 8.15846 | 83.09008 | 40804 ft | 481 kts | 108° |
| 2026-05-08 22:22 | 8.14125 | 83.14395 | 40804 ft | 481 kts | 108° |
| 2026-05-08 22:22 | 8.12067 | 83.20820 | 40804 ft | 481 kts | 108° |
| 2026-05-08 22:23 | 8.10008 | 83.27245 | 40804 ft | 481 kts | 108° |
| 2026-05-08 22:23 | 8.07948 | 83.33673 | 40804 ft | 481 kts | 108° |
| 2026-05-08 22:24 | 8.05888 | 83.40095 | 40804 ft | 481 kts | 108° |
| 2026-05-08 22:24 | 8.03827 | 83.46516 | 40804 ft | 481 kts | 108° |
| 2026-05-08 22:25 | 8.01764 | 83.52943 | 40804 ft | 481 kts | 108° |
| 2026-05-08 22:25 | 7.99702 | 83.59361 | 40804 ft | 481 kts | 108° |
| 2026-05-08 22:26 | 7.97637 | 83.65785 | 40804 ft | 481 kts | 108° |
| 2026-05-08 22:26 | 7.95573 | 83.72203 | 40804 ft | 481 kts | 108° |
| 2026-05-08 22:27 | 7.93507 | 83.78623 | 40804 ft | 481 kts | 108° |
| 2026-05-08 22:27 | 7.91439 | 83.85044 | 40814 ft | 481 kts | 108° |
| 2026-05-08 22:28 | 7.89372 | 83.91460 | 40813 ft | 481 kts | 108° |
| 2026-05-08 22:28 | 7.87303 | 83.97876 | 40813 ft | 481 kts | 108° |
| 2026-05-08 22:29 | 7.85246 | 84.04253 | 40813 ft | 481 kts | 108° |
| 2026-05-08 22:29 | 7.83176 | 84.10667 | 40813 ft | 481 kts | 108° |
| 2026-05-08 22:30 | 7.81105 | 84.17081 | 40814 ft | 481 kts | 108° |
| 2026-05-08 22:30 | 7.79033 | 84.23495 | 40814 ft | 481 kts | 108° |
| 2026-05-08 22:31 | 7.76957 | 84.29913 | 40814 ft | 481 kts | 108° |
| 2026-05-08 22:31 | 7.74884 | 84.36322 | 40813 ft | 481 kts | 108° |
| 2026-05-08 22:32 | 7.72808 | 84.42736 | 40813 ft | 481 kts | 108° |
| 2026-05-08 22:32 | 7.70731 | 84.49151 | 40813 ft | 481 kts | 108° |
| 2026-05-08 22:33 | 7.68654 | 84.55562 | 40813 ft | 481 kts | 108° |
| 2026-05-08 22:33 | 7.66575 | 84.61973 | 40813 ft | 481 kts | 108° |
| 2026-05-08 22:34 | 7.64495 | 84.68387 | 40814 ft | 481 kts | 108° |
| 2026-05-08 22:34 | 7.62414 | 84.74798 | 40814 ft | 481 kts | 108° |
| 2026-05-08 22:35 | 7.60333 | 84.81207 | 40813 ft | 481 kts | 108° |
| 2026-05-08 22:35 | 7.58248 | 84.87622 | 40813 ft | 481 kts | 108° |
| 2026-05-08 22:36 | 7.56165 | 84.94031 | 40814 ft | 481 kts | 108° |
| 2026-05-08 22:36 | 7.54080 | 85.00440 | 40813 ft | 481 kts | 108° |
| 2026-05-08 22:37 | 7.51993 | 85.06853 | 40813 ft | 481 kts | 108° |
| 2026-05-08 22:37 | 7.49906 | 85.13261 | 40813 ft | 481 kts | 108° |
| 2026-05-08 22:38 | 7.47817 | 85.19675 | 40813 ft | 481 kts | 108° |
| 2026-05-08 22:38 | 7.45729 | 85.26079 | 40813 ft | 481 kts | 108° |
| 2026-05-08 22:39 | 7.43604 | 85.32478 | 40813 ft | 482 kts | 109° |
| 2026-05-08 22:39 | 7.41283 | 85.38807 | 40813 ft | 482 kts | 110° |
| 2026-05-08 22:40 | 7.38901 | 85.45117 | 40813 ft | 482 kts | 110° |
| 2026-05-08 22:40 | 7.36534 | 85.51427 | 40813 ft | 482 kts | 110° |
| 2026-05-08 22:41 | 7.34180 | 85.57744 | 40814 ft | 482 kts | 110° |
| 2026-05-08 22:41 | 7.31846 | 85.64024 | 40818 ft | 482 kts | 110° |
| 2026-05-08 22:42 | 7.29481 | 85.70384 | 40823 ft | 482 kts | 110° |
| 2026-05-08 22:42 | 7.27146 | 85.76660 | 40823 ft | 482 kts | 110° |
| 2026-05-08 22:43 | 7.24795 | 85.82974 | 40823 ft | 482 kts | 110° |
| 2026-05-08 22:43 | 7.22424 | 85.89337 | 40823 ft | 482 kts | 110° |
| 2026-05-08 22:44 | 7.20088 | 85.95606 | 40823 ft | 482 kts | 110° |
| 2026-05-08 22:44 | 7.17716 | 86.01966 | 40813 ft | 482 kts | 110° |
| 2026-05-08 22:45 | 7.15374 | 86.08244 | 40813 ft | 482 kts | 110° |
| 2026-05-08 22:45 | 7.13001 | 86.14601 | 40813 ft | 482 kts | 110° |
| 2026-05-08 22:46 | 7.10642 | 86.20919 | 40813 ft | 482 kts | 110° |
| 2026-05-08 22:46 | 7.08298 | 86.27192 | 40813 ft | 482 kts | 110° |
| 2026-05-08 22:47 | 7.05938 | 86.33508 | 40814 ft | 482 kts | 110° |
| 2026-05-08 22:47 | 7.03576 | 86.39823 | 40813 ft | 482 kts | 110° |
| 2026-05-08 22:48 | 7.01212 | 86.46143 | 40813 ft | 482 kts | 110° |
| 2026-05-08 22:48 | 6.98848 | 86.52458 | 40813 ft | 482 kts | 110° |
| 2026-05-08 22:49 | 6.96484 | 86.58773 | 40813 ft | 482 kts | 110° |
| 2026-05-08 22:49 | 6.92933 | 86.68249 | 40813 ft | 482 kts | 110° |
| 2026-05-08 22:50 | 6.90551 | 86.74605 | 40813 ft | 482 kts | 110° |
| 2026-05-08 22:50 | 6.88198 | 86.80877 | 40813 ft | 482 kts | 110° |
| 2026-05-08 22:51 | 6.85831 | 86.87186 | 40821 ft | 482 kts | 110° |
| 2026-05-08 22:51 | 6.83462 | 86.93497 | 40823 ft | 482 kts | 110° |
| 2026-05-08 22:52 | 6.81092 | 86.99806 | 40823 ft | 482 kts | 110° |
| 2026-05-08 22:52 | 6.78723 | 87.06111 | 40823 ft | 482 kts | 110° |
| 2026-05-08 22:53 | 6.76354 | 87.12414 | 40823 ft | 482 kts | 110° |
| 2026-05-08 22:53 | 6.73985 | 87.18714 | 40823 ft | 482 kts | 110° |
| 2026-05-08 22:54 | 6.71614 | 87.25016 | 40823 ft | 482 kts | 110° |
| 2026-05-08 22:54 | 6.69241 | 87.31319 | 40823 ft | 482 kts | 110° |
| 2026-05-08 22:55 | 6.66870 | 87.37618 | 40823 ft | 481 kts | 110° |
| 2026-05-08 22:55 | 6.64497 | 87.43915 | 40823 ft | 481 kts | 110° |
| 2026-05-08 22:56 | 6.62123 | 87.50214 | 40823 ft | 482 kts | 110° |
| 2026-05-08 22:56 | 6.59748 | 87.56513 | 40830 ft | 482 kts | 110° |
| 2026-05-08 22:57 | 6.57373 | 87.62812 | 40832 ft | 482 kts | 110° |
| 2026-05-08 22:57 | 6.54996 | 87.69112 | 40832 ft | 482 kts | 110° |
| 2026-05-08 22:58 | 6.52619 | 87.75407 | 40832 ft | 482 kts | 110° |
| 2026-05-08 22:58 | 6.50241 | 87.81704 | 40832 ft | 482 kts | 110° |
| 2026-05-08 22:59 | 6.47862 | 87.87999 | 40832 ft | 482 kts | 110° |
| 2026-05-08 22:59 | 6.45484 | 87.94292 | 40832 ft | 482 kts | 110° |
| 2026-05-08 23:00 | 6.43121 | 88.00599 | 40832 ft | 482 kts | 109° |
| 2026-05-08 23:00 | 6.41021 | 88.06987 | 40832 ft | 481 kts | 107° |
| 2026-05-08 23:01 | 6.39035 | 88.13414 | 40832 ft | 481 kts | 106° |
| 2026-05-08 23:01 | 6.37037 | 88.19838 | 40832 ft | 481 kts | 107° |
| 2026-05-08 23:02 | 6.35012 | 88.26257 | 40832 ft | 481 kts | 107° |
| 2026-05-08 23:02 | 6.32993 | 88.32624 | 40833 ft | 481 kts | 107° |
| 2026-05-08 23:03 | 6.30957 | 88.39036 | 40841 ft | 481 kts | 107° |
| 2026-05-08 23:03 | 6.29251 | 88.44406 | 40841 ft | 481 kts | 107° |
| 2026-05-08 23:04 | 6.27216 | 88.50815 | 40847 ft | 481 kts | 107° |
| 2026-05-08 23:04 | 6.25181 | 88.57220 | 40850 ft | 481 kts | 107° |
| 2026-05-08 23:05 | 6.23146 | 88.63624 | 40851 ft | 481 kts | 107° |
| 2026-05-08 23:05 | 6.21111 | 88.70023 | 40851 ft | 481 kts | 107° |
| 2026-05-08 23:06 | 6.19074 | 88.76426 | 40851 ft | 481 kts | 107° |
| 2026-05-08 23:06 | 6.17037 | 88.82825 | 40851 ft | 481 kts | 107° |
| 2026-05-08 23:07 | 6.14999 | 88.89225 | 40851 ft | 481 kts | 107° |
| 2026-05-08 23:07 | 6.12961 | 88.95624 | 40851 ft | 481 kts | 107° |
| 2026-05-08 23:08 | 6.10921 | 89.02022 | 40850 ft | 481 kts | 107° |
| 2026-05-08 23:08 | 6.08881 | 89.08420 | 40851 ft | 481 kts | 107° |
| 2026-05-08 23:09 | 6.06841 | 89.14817 | 40850 ft | 481 kts | 107° |
| 2026-05-08 23:09 | 6.04800 | 89.21212 | 40851 ft | 481 kts | 107° |
| 2026-05-08 23:10 | 6.02758 | 89.27607 | 40850 ft | 481 kts | 107° |
| 2026-05-08 23:10 | 6.00714 | 89.34008 | 40851 ft | 481 kts | 107° |
| 2026-05-08 23:11 | 5.98670 | 89.40403 | 40850 ft | 481 kts | 107° |
| 2026-05-08 23:11 | 5.96627 | 89.46794 | 40851 ft | 481 kts | 107° |
| 2026-05-08 23:12 | 5.94581 | 89.53189 | 40851 ft | 481 kts | 107° |
| 2026-05-08 23:12 | 5.92537 | 89.59581 | 40851 ft | 481 kts | 107° |
| 2026-05-08 23:13 | 5.90491 | 89.65970 | 40851 ft | 481 kts | 107° |
| 2026-05-08 23:13 | 5.88444 | 89.72364 | 40851 ft | 481 kts | 107° |
| 2026-05-08 23:14 | 5.86396 | 89.78754 | 40850 ft | 481 kts | 107° |
| 2026-05-08 23:14 | 5.84348 | 89.85145 | 40850 ft | 481 kts | 107° |
| 2026-05-08 23:15 | 5.82299 | 89.91535 | 40850 ft | 481 kts | 107° |
| 2026-05-08 23:15 | 5.80249 | 89.97923 | 40851 ft | 481 kts | 107° |
| 2026-05-08 23:16 | 5.78198 | 90.04314 | 40851 ft | 481 kts | 107° |
| 2026-05-08 23:16 | 5.76148 | 90.10700 | 40850 ft | 481 kts | 107° |
| 2026-05-08 23:17 | 5.74096 | 90.17089 | 40851 ft | 481 kts | 107° |
| 2026-05-08 23:17 | 5.72044 | 90.23476 | 40850 ft | 481 kts | 107° |
| 2026-05-08 23:18 | 5.69991 | 90.29861 | 40851 ft | 480 kts | 107° |
| 2026-05-08 23:18 | 5.67939 | 90.36243 | 40851 ft | 480 kts | 107° |
| 2026-05-08 23:19 | 5.65885 | 90.42626 | 40851 ft | 480 kts | 107° |
| 2026-05-08 23:19 | 5.63830 | 90.49010 | 40851 ft | 480 kts | 107° |
| 2026-05-08 23:20 | 5.61777 | 90.55387 | 40851 ft | 480 kts | 107° |
| 2026-05-08 23:20 | 5.59721 | 90.61768 | 40850 ft | 480 kts | 107° |
| 2026-05-08 23:21 | 5.57666 | 90.68146 | 40850 ft | 480 kts | 107° |
| 2026-05-08 23:21 | 5.55611 | 90.74520 | 40851 ft | 480 kts | 107° |
| 2026-05-08 23:22 | 5.53557 | 90.80889 | 40851 ft | 480 kts | 107° |
| 2026-05-08 23:22 | 5.51501 | 90.87262 | 40851 ft | 480 kts | 107° |
| 2026-05-08 23:23 | 5.49444 | 90.93634 | 40851 ft | 480 kts | 107° |
| 2026-05-08 23:23 | 5.47387 | 91.00003 | 40851 ft | 480 kts | 107° |
| 2026-05-08 23:24 | 5.45331 | 91.06367 | 40850 ft | 480 kts | 107° |
| 2026-05-08 23:24 | 5.43274 | 91.12733 | 40850 ft | 479 kts | 107° |
| 2026-05-08 23:25 | 5.41218 | 91.19094 | 40850 ft | 479 kts | 107° |
| 2026-05-08 23:25 | 5.39159 | 91.25461 | 40850 ft | 479 kts | 107° |
| 2026-05-08 23:26 | 5.37102 | 91.31818 | 40851 ft | 479 kts | 107° |
| 2026-05-08 23:26 | 5.35043 | 91.38178 | 40850 ft | 479 kts | 107° |
| 2026-05-08 23:27 | 5.32984 | 91.44538 | 40851 ft | 479 kts | 107° |
| 2026-05-08 23:27 | 5.30925 | 91.50896 | 40850 ft | 479 kts | 107° |
| 2026-05-08 23:28 | 5.28865 | 91.57251 | 40850 ft | 479 kts | 107° |
| 2026-05-08 23:28 | 5.26805 | 91.63606 | 40851 ft | 479 kts | 107° |
| 2026-05-08 23:29 | 5.24744 | 91.69962 | 40850 ft | 479 kts | 107° |
| 2026-05-08 23:29 | 5.22682 | 91.76318 | 40851 ft | 479 kts | 107° |
| 2026-05-08 23:30 | 5.20620 | 91.82671 | 40851 ft | 479 kts | 107° |
| 2026-05-08 23:30 | 5.18558 | 91.89025 | 40851 ft | 479 kts | 107° |
| 2026-05-08 23:31 | 5.16495 | 91.95375 | 40850 ft | 479 kts | 107° |
| 2026-05-08 23:31 | 5.14458 | 92.01738 | 40850 ft | 479 kts | 106° |
| 2026-05-08 23:32 | 5.12569 | 92.08145 | 40850 ft | 479 kts | 105° |
| 2026-05-08 23:32 | 5.10723 | 92.14560 | 40850 ft | 479 kts | 105° |
| 2026-05-08 23:33 | 5.08867 | 92.20971 | 40850 ft | 479 kts | 105° |
| 2026-05-08 23:33 | 5.06998 | 92.27378 | 40850 ft | 479 kts | 105° |
| 2026-05-08 23:34 | 5.05137 | 92.33741 | 40851 ft | 478 kts | 105° |
| 2026-05-08 23:34 | 5.03251 | 92.40185 | 40851 ft | 478 kts | 105° |
| 2026-05-08 23:35 | 5.01379 | 92.46581 | 40851 ft | 478 kts | 105° |
| 2026-05-08 23:35 | 4.99504 | 92.52984 | 40851 ft | 478 kts | 105° |
| 2026-05-08 23:36 | 4.97641 | 92.59346 | 40850 ft | 479 kts | 105° |
| 2026-05-08 23:36 | 4.95752 | 92.65794 | 40850 ft | 479 kts | 105° |
| 2026-05-08 23:37 | 4.93877 | 92.72191 | 40850 ft | 478 kts | 105° |
| 2026-05-08 23:37 | 4.92001 | 92.78589 | 40860 ft | 478 kts | 105° |
| 2026-05-08 23:38 | 4.90125 | 92.84988 | 40859 ft | 478 kts | 105° |
| 2026-05-08 23:38 | 4.88247 | 92.91386 | 40859 ft | 478 kts | 105° |
| 2026-05-08 23:39 | 4.86369 | 92.97786 | 40860 ft | 478 kts | 105° |
| 2026-05-08 23:39 | 4.84501 | 93.04146 | 40860 ft | 478 kts | 105° |
| 2026-05-08 23:40 | 4.82622 | 93.10542 | 40859 ft | 478 kts | 105° |
| 2026-05-08 23:40 | 4.80743 | 93.16936 | 40860 ft | 478 kts | 105° |
| 2026-05-08 23:41 | 4.78863 | 93.23332 | 40860 ft | 478 kts | 105° |
| 2026-05-08 23:41 | 4.76983 | 93.29726 | 40860 ft | 478 kts | 105° |
| 2026-05-08 23:42 | 4.75103 | 93.36118 | 40860 ft | 478 kts | 105° |
| 2026-05-08 23:42 | 4.73247 | 93.42513 | 40860 ft | 478 kts | 105° |
| 2026-05-08 23:43 | 4.71405 | 93.48919 | 40860 ft | 478 kts | 105° |
| 2026-05-08 23:43 | 4.69564 | 93.55316 | 40861 ft | 478 kts | 105° |
| 2026-05-08 23:44 | 4.67720 | 93.61713 | 40860 ft | 478 kts | 105° |
| 2026-05-08 23:44 | 4.65873 | 93.68111 | 40861 ft | 478 kts | 105° |
| 2026-05-08 23:45 | 4.64327 | 93.73467 | 40860 ft | 477 kts | 105° |
| 2026-05-08 23:45 | 4.62492 | 93.79820 | 40861 ft | 477 kts | 105° |
| 2026-05-08 23:46 | 4.60633 | 93.86254 | 40860 ft | 477 kts | 105° |
| 2026-05-08 23:46 | 4.58786 | 93.92647 | 40860 ft | 477 kts | 105° |
| 2026-05-08 23:47 | 4.56950 | 93.98997 | 40861 ft | 477 kts | 105° |
| 2026-05-08 23:47 | 4.55019 | 94.05408 | 40860 ft | 478 kts | 106° |
| 2026-05-08 23:48 | 4.53053 | 94.11721 | 40860 ft | 478 kts | 106° |
| 2026-05-08 23:48 | 4.51073 | 94.18075 | 40860 ft | 478 kts | 106° |
| 2026-05-08 23:49 | 4.49101 | 94.24427 | 40861 ft | 478 kts | 106° |
| 2026-05-08 23:49 | 4.47132 | 94.30785 | 40861 ft | 478 kts | 106° |
| 2026-05-08 23:50 | 4.45164 | 94.37142 | 40860 ft | 478 kts | 106° |
| 2026-05-08 23:50 | 4.43195 | 94.43499 | 40860 ft | 478 kts | 106° |
| 2026-05-08 23:51 | 4.41224 | 94.49858 | 40872 ft | 478 kts | 106° |
| 2026-05-08 23:51 | 4.39254 | 94.56214 | 40890 ft | 478 kts | 106° |
| 2026-05-08 23:52 | 4.37283 | 94.62568 | 40892 ft | 478 kts | 106° |
| 2026-05-08 23:52 | 4.35311 | 94.68925 | 40892 ft | 478 kts | 106° |
| 2026-05-08 23:53 | 4.33325 | 94.75323 | 40883 ft | 478 kts | 106° |
| 2026-05-08 23:53 | 4.31351 | 94.81681 | 40883 ft | 478 kts | 106° |
| 2026-05-08 23:54 | 4.29377 | 94.88039 | 40892 ft | 478 kts | 106° |
| 2026-05-08 23:55 | 4.26428 | 94.97530 | 40892 ft | 478 kts | 106° |
| 2026-05-08 23:55 | 4.24452 | 95.03889 | 40889 ft | 478 kts | 106° |
| 2026-05-08 23:56 | 4.22475 | 95.10248 | 40883 ft | 478 kts | 106° |
| 2026-05-08 23:56 | 4.20499 | 95.16603 | 40888 ft | 478 kts | 106° |
| 2026-05-08 23:57 | 4.18523 | 95.22955 | 40887 ft | 478 kts | 106° |
| 2026-05-08 23:57 | 4.16546 | 95.29308 | 40886 ft | 478 kts | 106° |
| 2026-05-08 23:58 | 4.14567 | 95.35664 | 40889 ft | 478 kts | 106° |
| 2026-05-08 23:58 | 4.12588 | 95.42021 | 40883 ft | 478 kts | 106° |
| 2026-05-08 23:59 | 4.10607 | 95.48380 | 40891 ft | 478 kts | 106° |
| 2026-05-08 23:59 | 4.08628 | 95.54734 | 40885 ft | 478 kts | 106° |
| 2026-05-09 00:00 | 4.06648 | 95.61087 | 40891 ft | 478 kts | 106° |
| 2026-05-09 00:00 | 4.04667 | 95.67440 | 40893 ft | 478 kts | 106° |
| 2026-05-09 00:01 | 4.02687 | 95.73790 | 40893 ft | 478 kts | 106° |
| 2026-05-09 00:01 | 4.00706 | 95.80140 | 40884 ft | 478 kts | 106° |
| 2026-05-09 00:02 | 3.98726 | 95.86487 | 40883 ft | 477 kts | 106° |
| 2026-05-09 00:02 | 3.96745 | 95.92834 | 40883 ft | 477 kts | 106° |
| 2026-05-09 00:03 | 3.94765 | 95.99177 | 40887 ft | 477 kts | 106° |
| 2026-05-09 00:03 | 3.92782 | 96.05524 | 40892 ft | 477 kts | 106° |
| 2026-05-09 00:04 | 3.90801 | 96.11868 | 40889 ft | 477 kts | 106° |
| 2026-05-09 00:04 | 3.88817 | 96.18215 | 40884 ft | 477 kts | 106° |
| 2026-05-09 00:05 | 3.86834 | 96.24560 | 40893 ft | 478 kts | 106° |
| 2026-05-09 00:05 | 3.84850 | 96.30905 | 40893 ft | 478 kts | 106° |
| 2026-05-09 00:06 | 3.82885 | 96.37188 | 40880 ft | 478 kts | 106° |
| 2026-05-09 00:06 | 3.80899 | 96.43536 | 40886 ft | 478 kts | 106° |
| 2026-05-09 00:07 | 3.78911 | 96.49891 | 40876 ft | 478 kts | 106° |
| 2026-05-09 00:07 | 3.76934 | 96.56206 | 40876 ft | 479 kts | 106° |
| 2026-05-09 00:08 | 3.74941 | 96.62572 | 40876 ft | 479 kts | 106° |
| 2026-05-09 00:08 | 3.72949 | 96.68933 | 40886 ft | 479 kts | 106° |
| 2026-05-09 00:09 | 3.70954 | 96.75299 | 40880 ft | 479 kts | 106° |
| 2026-05-09 00:09 | 3.68959 | 96.81668 | 40880 ft | 479 kts | 106° |
| 2026-05-09 00:10 | 3.66962 | 96.88036 | 40880 ft | 479 kts | 106° |
| 2026-05-09 00:10 | 3.64968 | 96.94397 | 40880 ft | 479 kts | 106° |
| 2026-05-09 00:11 | 3.62972 | 97.00765 | 40879 ft | 480 kts | 106° |
| 2026-05-09 00:11 | 3.60973 | 97.07134 | 40877 ft | 479 kts | 106° |
| 2026-05-09 00:12 | 3.58974 | 97.13505 | 40878 ft | 480 kts | 106° |
| 2026-05-09 00:12 | 3.56975 | 97.19873 | 40874 ft | 480 kts | 107° |
| 2026-05-09 00:13 | 3.54975 | 97.26246 | 40882 ft | 480 kts | 107° |
| 2026-05-09 00:13 | 3.52974 | 97.32615 | 40873 ft | 480 kts | 107° |
| 2026-05-09 00:14 | 3.50974 | 97.38986 | 40882 ft | 480 kts | 107° |
| 2026-05-09 00:14 | 3.48972 | 97.45356 | 40878 ft | 480 kts | 107° |
| 2026-05-09 00:15 | 3.46972 | 97.51721 | 40884 ft | 480 kts | 107° |
| 2026-05-09 00:15 | 3.44970 | 97.58091 | 40879 ft | 480 kts | 107° |
| 2026-05-09 00:16 | 3.42975 | 97.64461 | 40876 ft | 480 kts | 106° |
| 2026-05-09 00:16 | 3.40991 | 97.70837 | 40882 ft | 480 kts | 106° |
| 2026-05-09 00:17 | 3.39008 | 97.77216 | 40873 ft | 480 kts | 106° |
| 2026-05-09 00:17 | 3.37022 | 97.83597 | 40877 ft | 480 kts | 106° |
| 2026-05-09 00:18 | 3.35037 | 97.89972 | 40882 ft | 480 kts | 106° |
| 2026-05-09 00:18 | 3.33049 | 97.96351 | 40878 ft | 480 kts | 106° |
| 2026-05-09 00:19 | 3.31061 | 98.02730 | 40888 ft | 480 kts | 106° |
| 2026-05-09 00:19 | 3.29072 | 98.09112 | 40883 ft | 480 kts | 106° |
| 2026-05-09 00:20 | 3.27082 | 98.15495 | 40876 ft | 481 kts | 106° |
| 2026-05-09 00:20 | 3.25092 | 98.21878 | 40872 ft | 481 kts | 106° |
| 2026-05-09 00:21 | 3.23101 | 98.28262 | 40887 ft | 481 kts | 106° |
| 2026-05-09 00:21 | 3.21108 | 98.34649 | 40889 ft | 480 kts | 106° |
| 2026-05-09 00:22 | 3.19116 | 98.41030 | 40892 ft | 480 kts | 106° |
| 2026-05-09 00:22 | 3.17125 | 98.47410 | 40893 ft | 481 kts | 106° |
| 2026-05-09 00:23 | 3.15131 | 98.53795 | 40885 ft | 481 kts | 106° |
| 2026-05-09 00:23 | 3.13138 | 98.60179 | 40888 ft | 481 kts | 106° |
| 2026-05-09 00:24 | 3.11143 | 98.66564 | 40893 ft | 481 kts | 106° |
| 2026-05-09 00:24 | 3.09148 | 98.72947 | 40889 ft | 481 kts | 106° |
| 2026-05-09 00:25 | 3.07151 | 98.79336 | 40888 ft | 481 kts | 106° |
| 2026-05-09 00:25 | 3.05154 | 98.85721 | 40888 ft | 481 kts | 106° |
| 2026-05-09 00:26 | 3.03156 | 98.92111 | 40891 ft | 481 kts | 106° |
| 2026-05-09 00:26 | 3.01171 | 98.98456 | 40891 ft | 481 kts | 106° |
| 2026-05-09 00:27 | 2.99172 | 99.04845 | 40882 ft | 481 kts | 106° |
| 2026-05-09 00:27 | 2.97172 | 99.11237 | 40889 ft | 481 kts | 106° |
| 2026-05-09 00:28 | 2.95172 | 99.17628 | 40888 ft | 481 kts | 106° |
| 2026-05-09 00:28 | 2.93177 | 99.24000 | 40888 ft | 482 kts | 106° |
| 2026-05-09 00:29 | 2.91511 | 99.29316 | 40883 ft | 482 kts | 106° |
| 2026-05-09 00:29 | 2.89499 | 99.35703 | 40888 ft | 482 kts | 106° |
| 2026-05-09 00:30 | 2.87480 | 99.42095 | 40892 ft | 482 kts | 106° |
| 2026-05-09 00:30 | 2.85463 | 99.48484 | 40892 ft | 482 kts | 106° |
| 2026-05-09 00:31 | 2.83450 | 99.54861 | 40889 ft | 482 kts | 106° |
| 2026-05-09 00:31 | 2.81434 | 99.61251 | 40889 ft | 482 kts | 106° |
| 2026-05-09 00:32 | 2.79416 | 99.67645 | 40892 ft | 482 kts | 106° |
| 2026-05-09 00:32 | 2.77397 | 99.74041 | 40892 ft | 482 kts | 106° |
| 2026-05-09 00:33 | 2.75379 | 99.80431 | 40892 ft | 482 kts | 106° |
| 2026-05-09 00:33 | 2.73360 | 99.86823 | 40888 ft | 482 kts | 106° |
| 2026-05-09 00:34 | 2.71342 | 99.93214 | 40891 ft | 482 kts | 106° |
| 2026-05-09 00:34 | 2.69346 | 99.99612 | 40886 ft | 482 kts | 106° |
| 2026-05-09 00:35 | 2.67359 | 100.06016 | 40882 ft | 482 kts | 106° |
| 2026-05-09 00:35 | 2.65372 | 100.12418 | 40882 ft | 482 kts | 106° |
| 2026-05-09 00:36 | 2.63382 | 100.18821 | 40890 ft | 482 kts | 106° |
| 2026-05-09 00:36 | 2.61398 | 100.25202 | 40883 ft | 482 kts | 106° |
| 2026-05-09 00:37 | 2.59407 | 100.31602 | 40883 ft | 482 kts | 106° |
| 2026-05-09 00:37 | 2.57416 | 100.38003 | 40892 ft | 482 kts | 106° |
| 2026-05-09 00:38 | 2.55423 | 100.44408 | 40886 ft | 482 kts | 106° |
| 2026-05-09 00:38 | 2.53432 | 100.50804 | 40889 ft | 482 kts | 106° |
| 2026-05-09 00:39 | 2.51439 | 100.57207 | 40891 ft | 482 kts | 106° |
| 2026-05-09 00:39 | 2.49448 | 100.63603 | 40891 ft | 482 kts | 106° |
| 2026-05-09 00:40 | 2.47456 | 100.70002 | 40885 ft | 482 kts | 106° |
| 2026-05-09 00:40 | 2.45483 | 100.76362 | 40888 ft | 482 kts | 106° |
| 2026-05-09 00:41 | 2.42506 | 100.85963 | 40890 ft | 482 kts | 106° |
| 2026-05-09 00:41 | 2.40521 | 100.92362 | 40892 ft | 482 kts | 106° |
| 2026-05-09 00:42 | 2.38534 | 100.98761 | 40885 ft | 482 kts | 106° |
| 2026-05-09 00:42 | 2.36548 | 101.05159 | 40885 ft | 482 kts | 106° |
| 2026-05-09 00:43 | 2.34562 | 101.11553 | 40888 ft | 482 kts | 106° |
| 2026-05-09 00:43 | 2.32577 | 101.17945 | 40887 ft | 481 kts | 106° |
| 2026-05-09 00:44 | 2.30591 | 101.24338 | 40892 ft | 481 kts | 106° |
| 2026-05-09 00:44 | 2.28605 | 101.30730 | 40892 ft | 481 kts | 106° |
| 2026-05-09 00:45 | 2.26621 | 101.37117 | 40891 ft | 481 kts | 106° |
| 2026-05-09 00:45 | 2.24635 | 101.43508 | 40885 ft | 481 kts | 106° |
| 2026-05-09 00:46 | 2.22651 | 101.49892 | 40884 ft | 481 kts | 106° |
| 2026-05-09 00:46 | 2.20588 | 101.56248 | 40892 ft | 481 kts | 110° |
| 2026-05-09 00:47 | 2.18051 | 101.62439 | 40885 ft | 481 kts | 112° |
| 2026-05-09 00:47 | 2.15418 | 101.68592 | 40890 ft | 482 kts | 112° |
| 2026-05-09 00:48 | 2.12767 | 101.74738 | 40899 ft | 481 kts | 112° |
| 2026-05-09 00:48 | 2.10122 | 101.80885 | 40896 ft | 481 kts | 112° |
| 2026-05-09 00:49 | 2.07485 | 101.87032 | 40899 ft | 481 kts | 112° |
| 2026-05-09 00:49 | 2.04848 | 101.93182 | 40906 ft | 481 kts | 112° |
| 2026-05-09 00:50 | 2.02212 | 101.99329 | 40905 ft | 481 kts | 112° |
| 2026-05-09 00:50 | 1.99574 | 102.05481 | 40907 ft | 481 kts | 112° |
| 2026-05-09 00:51 | 1.96937 | 102.11627 | 40908 ft | 481 kts | 112° |
| 2026-05-09 00:51 | 1.94299 | 102.17776 | 40908 ft | 481 kts | 112° |
| 2026-05-09 00:52 | 1.91661 | 102.23922 | 40907 ft | 481 kts | 112° |
| 2026-05-09 00:52 | 1.89023 | 102.30069 | 40906 ft | 481 kts | 112° |
| 2026-05-09 00:53 | 1.86384 | 102.36216 | 40907 ft | 481 kts | 112° |
| 2026-05-09 00:53 | 1.83746 | 102.42361 | 40906 ft | 481 kts | 112° |
| 2026-05-09 00:54 | 1.81109 | 102.48501 | 40906 ft | 481 kts | 112° |
| 2026-05-09 00:54 | 1.78470 | 102.54648 | 40907 ft | 481 kts | 112° |
| 2026-05-09 00:55 | 1.75834 | 102.60786 | 40898 ft | 481 kts | 112° |
| 2026-05-09 00:55 | 1.73196 | 102.66927 | 40897 ft | 481 kts | 112° |
| 2026-05-09 00:56 | 1.70559 | 102.73067 | 40899 ft | 481 kts | 112° |
| 2026-05-09 00:56 | 1.67921 | 102.79208 | 40895 ft | 480 kts | 112° |
| 2026-05-09 00:57 | 1.65284 | 102.85346 | 40891 ft | 481 kts | 112° |
| 2026-05-09 00:57 | 1.62648 | 102.91479 | 40891 ft | 480 kts | 112° |
| 2026-05-09 00:58 | 1.60010 | 102.97617 | 40888 ft | 480 kts | 112° |
| 2026-05-09 00:58 | 1.57374 | 103.03751 | 40883 ft | 480 kts | 112° |
| 2026-05-09 00:59 | 1.54740 | 103.09883 | 40886 ft | 480 kts | 112° |
| 2026-05-09 00:59 | 1.52118 | 103.16026 | 40888 ft | 480 kts | 112° |
| 2026-05-09 01:00 | 1.49503 | 103.22168 | 40888 ft | 480 kts | 112° |
| 2026-05-09 01:00 | 1.46888 | 103.28308 | 40884 ft | 480 kts | 112° |
| 2026-05-09 01:01 | 1.44268 | 103.34451 | 40888 ft | 480 kts | 112° |
| 2026-05-09 01:01 | 1.41627 | 103.40589 | 40889 ft | 480 kts | 112° |
| 2026-05-09 01:02 | 1.38981 | 103.46720 | 40896 ft | 480 kts | 112° |
| 2026-05-09 01:02 | 1.36337 | 103.52850 | 40894 ft | 480 kts | 112° |
| 2026-05-09 01:03 | 1.33692 | 103.58986 | 40891 ft | 481 kts | 112° |
| 2026-05-09 01:03 | 1.31064 | 103.65071 | 40888 ft | 480 kts | 112° |
| 2026-05-09 01:04 | 1.28416 | 103.71179 | 40888 ft | 480 kts | 112° |
| 2026-05-09 01:04 | 1.25770 | 103.77279 | 40886 ft | 480 kts | 112° |
| 2026-05-09 01:05 | 1.23130 | 103.83364 | 40903 ft | 480 kts | 112° |
| 2026-05-09 01:06 | 1.18911 | 103.92453 | 40897 ft | 481 kts | 115° |
| 2026-05-09 01:06 | 1.15973 | 103.98451 | 40900 ft | 481 kts | 115° |
| 2026-05-09 01:07 | 1.13044 | 104.04458 | 40891 ft | 481 kts | 115° |
| 2026-05-09 01:07 | 1.10126 | 104.10480 | 40887 ft | 481 kts | 115° |
| 2026-05-09 01:08 | 1.06880 | 104.16319 | 40882 ft | 482 kts | 125° |
| 2026-05-09 01:08 | 1.02140 | 104.21046 | 40892 ft | 485 kts | 144° |
| 2026-05-09 01:09 | 0.96492 | 104.24726 | 40890 ft | 484 kts | 140° |
| 2026-05-09 01:09 | 0.91928 | 104.29533 | 40893 ft | 482 kts | 123° |
| 2026-05-09 01:09 | 0.90265 | 104.32502 | 40899 ft | 481 kts | 112° |
| 2026-05-09 01:10 | 0.89189 | 104.35610 | 40901 ft | 480 kts | 103° |
| 2026-05-09 01:10 | 0.88646 | 104.41130 | 40907 ft | 478 kts | 86° |
| 2026-05-09 01:11 | 0.89638 | 104.48836 | 40906 ft | 479 kts | 84° |
| 2026-05-09 01:11 | 0.89567 | 104.54356 | 40914 ft | 479 kts | 97° |
| 2026-05-09 01:12 | 0.88506 | 104.60938 | 40917 ft | 480 kts | 100° |
| 2026-05-09 01:12 | 0.87188 | 104.67476 | 40917 ft | 480 kts | 101° |
| 2026-05-09 01:13 | 0.85832 | 104.74003 | 40914 ft | 480 kts | 101° |
| 2026-05-09 01:13 | 0.84498 | 104.80533 | 40915 ft | 480 kts | 101° |
| 2026-05-09 01:14 | 0.83180 | 104.87073 | 40918 ft | 480 kts | 101° |
| 2026-05-09 01:14 | 0.81866 | 104.93614 | 40916 ft | 480 kts | 101° |
| 2026-05-09 01:15 | 0.80552 | 105.00154 | 40916 ft | 480 kts | 101° |
| 2026-05-09 01:15 | 0.79237 | 105.06697 | 40917 ft | 480 kts | 101° |
| 2026-05-09 01:16 | 0.77921 | 105.13244 | 40917 ft | 481 kts | 101° |
| 2026-05-09 01:16 | 0.76604 | 105.19789 | 40917 ft | 481 kts | 101° |
| 2026-05-09 01:17 | 0.74642 | 105.29538 | 40914 ft | 480 kts | 101° |
| 2026-05-09 01:17 | 0.73325 | 105.36080 | 40916 ft | 480 kts | 101° |
| 2026-05-09 01:18 | 0.72008 | 105.42626 | 40917 ft | 480 kts | 101° |
| 2026-05-09 01:18 | 0.70716 | 105.49047 | 40916 ft | 466 kts | 101° |
| 2026-05-09 01:19 | 0.70087 | 105.52172 | 40921 ft | 452 kts | 101° |
| 2026-05-09 01:19 | 0.69481 | 105.55184 | 40922 ft | 439 kts | 101° |
| 2026-05-09 01:19 | 0.68888 | 105.58136 | 40921 ft | 427 kts | 101° |
| 2026-05-09 01:19 | 0.68308 | 105.61020 | 40920 ft | 421 kts | 101° |
| 2026-05-09 01:20 | 0.67156 | 105.66750 | 40916 ft | 421 kts | 101° |
| 2026-05-09 01:20 | 0.66003 | 105.72482 | 40914 ft | 421 kts | 101° |
| 2026-05-09 01:21 | 0.64851 | 105.78215 | 40922 ft | 421 kts | 101° |
| 2026-05-09 01:21 | 0.63698 | 105.83947 | 40935 ft | 421 kts | 101° |
| 2026-05-09 01:22 | 0.62550 | 105.89656 | 40934 ft | 420 kts | 101° |
| 2026-05-09 01:22 | 0.61399 | 105.95380 | 40934 ft | 420 kts | 101° |
| 2026-05-09 01:23 | 0.60247 | 106.01110 | 40934 ft | 421 kts | 101° |
| 2026-05-09 01:23 | 0.59095 | 106.06841 | 40934 ft | 421 kts | 101° |
| 2026-05-09 01:24 | 0.57942 | 106.12576 | 40934 ft | 421 kts | 101° |
| 2026-05-09 01:24 | 0.56787 | 106.18316 | 40934 ft | 421 kts | 101° |
| 2026-05-09 01:25 | 0.55633 | 106.24054 | 40934 ft | 421 kts | 101° |
| 2026-05-09 01:25 | 0.54479 | 106.29794 | 40934 ft | 421 kts | 101° |
| 2026-05-09 01:26 | 0.53325 | 106.35531 | 40934 ft | 421 kts | 101° |
| 2026-05-09 01:26 | 0.52170 | 106.41272 | 40934 ft | 422 kts | 101° |
| 2026-05-09 01:27 | 0.51014 | 106.47017 | 40934 ft | 422 kts | 101° |
| 2026-05-09 01:27 | 0.49857 | 106.52763 | 40934 ft | 422 kts | 101° |
| 2026-05-09 01:28 | 0.48701 | 106.58507 | 40934 ft | 422 kts | 101° |
| 2026-05-09 01:28 | 0.47542 | 106.64263 | 40934 ft | 422 kts | 101° |
| 2026-05-09 01:29 | 0.46392 | 106.69979 | 40934 ft | 422 kts | 101° |
| 2026-05-09 01:29 | 0.45234 | 106.75730 | 40934 ft | 422 kts | 101° |
| 2026-05-09 01:30 | 0.44076 | 106.81484 | 40934 ft | 423 kts | 101° |
| 2026-05-09 01:30 | 0.42916 | 106.87246 | 40934 ft | 423 kts | 101° |
| 2026-05-09 01:31 | 0.41756 | 106.93008 | 40934 ft | 423 kts | 101° |
| 2026-05-09 01:31 | 0.40593 | 106.98773 | 40934 ft | 423 kts | 101° |
| 2026-05-09 01:32 | 0.39429 | 107.04544 | 40934 ft | 424 kts | 101° |
| 2026-05-09 01:32 | 0.38265 | 107.10313 | 40935 ft | 424 kts | 101° |
| 2026-05-09 01:33 | 0.37101 | 107.16087 | 40934 ft | 424 kts | 101° |
| 2026-05-09 01:33 | 0.35936 | 107.21859 | 40934 ft | 424 kts | 101° |
| 2026-05-09 01:34 | 0.34771 | 107.27638 | 40934 ft | 424 kts | 101° |
| 2026-05-09 01:34 | 0.33604 | 107.33420 | 40934 ft | 425 kts | 101° |
| 2026-05-09 01:35 | 0.32438 | 107.39200 | 40934 ft | 425 kts | 101° |
| 2026-05-09 01:35 | 0.31272 | 107.44979 | 40934 ft | 424 kts | 101° |
| 2026-05-09 01:36 | 0.30105 | 107.50764 | 40934 ft | 424 kts | 101° |
| 2026-05-09 01:36 | 0.28939 | 107.56543 | 40934 ft | 424 kts | 101° |
| 2026-05-09 01:37 | 0.27773 | 107.62326 | 40934 ft | 425 kts | 101° |
| 2026-05-09 01:37 | 0.26606 | 107.68109 | 40934 ft | 425 kts | 101° |
| 2026-05-09 01:38 | 0.25439 | 107.73895 | 40934 ft | 425 kts | 101° |
| 2026-05-09 01:38 | 0.24271 | 107.79683 | 40934 ft | 425 kts | 101° |
| 2026-05-09 01:39 | 0.23103 | 107.85470 | 40934 ft | 425 kts | 101° |
| 2026-05-09 01:39 | 0.21936 | 107.91253 | 40934 ft | 425 kts | 101° |
| 2026-05-09 01:40 | 0.20768 | 107.97042 | 40934 ft | 425 kts | 101° |
| 2026-05-09 01:40 | 0.19601 | 108.02825 | 40934 ft | 425 kts | 101° |
| 2026-05-09 01:41 | 0.18434 | 108.08612 | 40934 ft | 425 kts | 101° |
| 2026-05-09 01:41 | 0.17267 | 108.14397 | 40934 ft | 425 kts | 101° |
| 2026-05-09 01:42 | 0.16100 | 108.20184 | 40934 ft | 425 kts | 101° |
| 2026-05-09 01:42 | 0.14940 | 108.25932 | 40934 ft | 425 kts | 101° |
| 2026-05-09 01:43 | 0.13766 | 108.31753 | 40934 ft | 425 kts | 101° |
| 2026-05-09 01:43 | 0.12607 | 108.37501 | 40934 ft | 425 kts | 101° |
| 2026-05-09 01:44 | 0.11438 | 108.43294 | 40934 ft | 425 kts | 101° |
| 2026-05-09 01:44 | 0.10269 | 108.49087 | 40934 ft | 425 kts | 101° |
| 2026-05-09 01:45 | 0.09100 | 108.54880 | 40934 ft | 425 kts | 101° |
| 2026-05-09 01:45 | 0.07932 | 108.60668 | 40934 ft | 425 kts | 101° |
| 2026-05-09 01:46 | 0.06764 | 108.66458 | 40934 ft | 425 kts | 101° |
| 2026-05-09 01:46 | 0.05594 | 108.72253 | 40935 ft | 425 kts | 101° |
| 2026-05-09 01:47 | 0.04425 | 108.78047 | 40934 ft | 426 kts | 101° |
| 2026-05-09 01:47 | 0.03256 | 108.83838 | 40934 ft | 426 kts | 101° |
| 2026-05-09 01:48 | 0.02086 | 108.89634 | 40934 ft | 425 kts | 101° |
| 2026-05-09 01:48 | 0.00917 | 108.95430 | 40934 ft | 426 kts | 101° |
| 2026-05-09 01:49 | -0.00259 | 109.01226 | 40934 ft | 426 kts | 102° |
| 2026-05-09 01:49 | -0.01474 | 109.07010 | 40934 ft | 425 kts | 102° |
| 2026-05-09 01:50 | -0.02699 | 109.12783 | 40934 ft | 425 kts | 102° |
| 2026-05-09 01:50 | -0.03922 | 109.18554 | 40934 ft | 425 kts | 102° |
| 2026-05-09 01:51 | -0.05142 | 109.24328 | 40922 ft | 425 kts | 102° |
| 2026-05-09 01:51 | -0.06361 | 109.30100 | 40916 ft | 425 kts | 102° |
| 2026-05-09 01:52 | -0.07685 | 109.35851 | 40918 ft | 425 kts | 108° |
| 2026-05-09 01:52 | -0.10214 | 109.41166 | 40916 ft | 424 kts | 120° |
| 2026-05-09 01:53 | -0.13275 | 109.46208 | 40916 ft | 425 kts | 122° |
| 2026-05-09 01:53 | -0.16438 | 109.51201 | 40915 ft | 425 kts | 122° |
| 2026-05-09 01:54 | -0.19591 | 109.56192 | 40915 ft | 425 kts | 122° |
| 2026-05-09 01:54 | -0.22199 | 109.60354 | 40916 ft | 425 kts | 122° |
| 2026-05-09 01:55 | -0.25326 | 109.65360 | 40916 ft | 425 kts | 122° |
| 2026-05-09 01:55 | -0.28452 | 109.70371 | 40916 ft | 425 kts | 122° |
| 2026-05-09 01:56 | -0.32085 | 109.76192 | 40915 ft | 425 kts | 122° |
| 2026-05-09 01:56 | -0.34704 | 109.80387 | 40916 ft | 425 kts | 122° |
| 2026-05-09 01:57 | -0.37812 | 109.85366 | 40915 ft | 425 kts | 122° |
| 2026-05-09 01:57 | -0.40939 | 109.90376 | 40915 ft | 425 kts | 122° |
| 2026-05-09 01:58 | -0.44087 | 109.95419 | 40916 ft | 425 kts | 122° |
| 2026-05-09 01:58 | -0.47508 | 110.00898 | 40917 ft | 424 kts | 122° |
| 2026-05-09 01:59 | -0.50632 | 110.05902 | 40916 ft | 425 kts | 122° |
| 2026-05-09 01:59 | -0.53251 | 110.10099 | 40915 ft | 425 kts | 122° |
| 2026-05-09 02:00 | -0.56368 | 110.15092 | 40916 ft | 425 kts | 122° |
| 2026-05-09 02:00 | -0.59283 | 110.19762 | 40917 ft | 425 kts | 122° |
| 2026-05-09 02:01 | -0.62431 | 110.24805 | 40916 ft | 425 kts | 122° |
| 2026-05-09 02:01 | -0.65556 | 110.29812 | 40916 ft | 425 kts | 122° |
| 2026-05-09 02:02 | -0.68682 | 110.34820 | 40917 ft | 425 kts | 122° |
| 2026-05-09 02:02 | -0.71808 | 110.39829 | 40915 ft | 425 kts | 122° |
| 2026-05-09 02:03 | -0.74933 | 110.44837 | 40916 ft | 425 kts | 122° |
| 2026-05-09 02:03 | -0.78046 | 110.49825 | 40916 ft | 425 kts | 122° |
| 2026-05-09 02:04 | -0.81172 | 110.54835 | 40910 ft | 425 kts | 121° |
| 2026-05-09 02:04 | -0.84296 | 110.59841 | 40905 ft | 425 kts | 121° |
| 2026-05-09 02:05 | -0.87423 | 110.64851 | 40905 ft | 425 kts | 121° |
| 2026-05-09 02:05 | -0.90546 | 110.69856 | 40907 ft | 425 kts | 122° |
| 2026-05-09 02:06 | -0.93603 | 110.74709 | 40902 ft | 425 kts | 122° |
| 2026-05-09 02:07 | -0.98331 | 110.82197 | 40906 ft | 425 kts | 122° |
| 2026-05-09 02:07 | -1.01482 | 110.87187 | 40907 ft | 425 kts | 122° |
| 2026-05-09 02:08 | -1.04631 | 110.92177 | 40906 ft | 425 kts | 122° |
| 2026-05-09 02:08 | -1.07780 | 110.97166 | 40907 ft | 424 kts | 122° |
| 2026-05-09 02:09 | -1.10930 | 111.02156 | 40906 ft | 424 kts | 122° |
| 2026-05-09 02:09 | -1.14078 | 111.07143 | 40906 ft | 424 kts | 122° |
| 2026-05-09 02:10 | -1.17229 | 111.12136 | 40907 ft | 425 kts | 122° |
| 2026-05-09 02:10 | -1.20379 | 111.17127 | 40906 ft | 425 kts | 122° |
| 2026-05-09 02:11 | -1.23527 | 111.22117 | 40906 ft | 425 kts | 122° |
| 2026-05-09 02:11 | -1.26679 | 111.27111 | 40907 ft | 425 kts | 122° |
| 2026-05-09 02:12 | -1.29829 | 111.32104 | 40907 ft | 425 kts | 122° |
| 2026-05-09 02:12 | -1.32981 | 111.37100 | 40907 ft | 425 kts | 122° |
| 2026-05-09 02:13 | -1.36103 | 111.42048 | 40906 ft | 425 kts | 122° |
| 2026-05-09 02:13 | -1.39264 | 111.47059 | 40914 ft | 425 kts | 122° |
| 2026-05-09 02:14 | -1.42416 | 111.52056 | 40915 ft | 425 kts | 122° |
| 2026-05-09 02:14 | -1.45571 | 111.57057 | 40914 ft | 425 kts | 121° |
| 2026-05-09 02:15 | -1.48700 | 111.62027 | 40914 ft | 425 kts | 121° |
| 2026-05-09 02:15 | -1.51867 | 111.67067 | 40918 ft | 425 kts | 121° |
| 2026-05-09 02:16 | -1.54993 | 111.72040 | 40916 ft | 425 kts | 121° |
| 2026-05-09 02:16 | -1.58142 | 111.77052 | 40915 ft | 426 kts | 121° |
| 2026-05-09 02:17 | -1.61290 | 111.82061 | 40917 ft | 426 kts | 121° |
| 2026-05-09 02:17 | -1.64439 | 111.87072 | 40906 ft | 426 kts | 121° |
| 2026-05-09 02:18 | -1.67586 | 111.92081 | 40906 ft | 426 kts | 121° |
| 2026-05-09 02:18 | -1.70736 | 111.97095 | 40905 ft | 426 kts | 121° |
| 2026-05-09 02:19 | -1.73886 | 112.02109 | 40906 ft | 426 kts | 121° |
| 2026-05-09 02:19 | -1.77036 | 112.07125 | 40905 ft | 426 kts | 121° |
| 2026-05-09 02:20 | -1.80188 | 112.12143 | 40905 ft | 426 kts | 121° |
| 2026-05-09 02:20 | -1.83328 | 112.17142 | 40906 ft | 426 kts | 121° |
| 2026-05-09 02:21 | -1.86477 | 112.22157 | 40906 ft | 426 kts | 121° |
| 2026-05-09 02:21 | -1.89629 | 112.27175 | 40906 ft | 426 kts | 121° |
| 2026-05-09 02:22 | -1.92777 | 112.32190 | 40906 ft | 426 kts | 121° |
| 2026-05-09 02:22 | -1.95930 | 112.37211 | 40906 ft | 426 kts | 121° |
| 2026-05-09 02:23 | -1.99080 | 112.42228 | 40906 ft | 426 kts | 121° |
| 2026-05-09 02:23 | -2.02229 | 112.47246 | 40907 ft | 426 kts | 121° |
| 2026-05-09 02:24 | -2.05368 | 112.52246 | 40611 ft | 428 kts | 121° |
| 2026-05-09 02:24 | -2.06952 | 112.54770 | 40353 ft | 429 kts | 121° |
| 2026-05-09 02:24 | -2.08538 | 112.57297 | 40100 ft | 430 kts | 121° |
| 2026-05-09 02:24 | -2.10127 | 112.59829 | 39852 ft | 430 kts | 121° |
| 2026-05-09 02:25 | -2.11717 | 112.62364 | 39598 ft | 430 kts | 121° |
| 2026-05-09 02:25 | -2.13309 | 112.64899 | 39349 ft | 431 kts | 121° |
| 2026-05-09 02:25 | -2.14903 | 112.67440 | 39098 ft | 432 kts | 121° |
| 2026-05-09 02:25 | -2.16500 | 112.69985 | 38847 ft | 432 kts | 121° |
| 2026-05-09 02:26 | -2.18096 | 112.72528 | 38596 ft | 432 kts | 121° |
| 2026-05-09 02:26 | -2.19695 | 112.75076 | 38339 ft | 433 kts | 121° |
| 2026-05-09 02:26 | -2.21295 | 112.77627 | 38095 ft | 433 kts | 121° |
| 2026-05-09 02:26 | -2.22894 | 112.80176 | 37845 ft | 433 kts | 121° |
| 2026-05-09 02:27 | -2.24476 | 112.82698 | 37597 ft | 433 kts | 121° |
| 2026-05-09 02:27 | -2.26076 | 112.85250 | 37349 ft | 434 kts | 121° |
| 2026-05-09 02:27 | -2.27670 | 112.87790 | 37107 ft | 434 kts | 121° |
| 2026-05-09 02:27 | -2.29281 | 112.90359 | 36851 ft | 434 kts | 122° |
| 2026-05-09 02:28 | -2.30883 | 112.92913 | 36595 ft | 434 kts | 122° |
| 2026-05-09 02:28 | -2.32488 | 112.95473 | 36347 ft | 434 kts | 122° |
| 2026-05-09 02:28 | -2.34094 | 112.98033 | 36090 ft | 436 kts | 122° |
| 2026-05-09 02:28 | -2.35713 | 113.00615 | 35835 ft | 440 kts | 122° |
| 2026-05-09 02:29 | -2.39052 | 113.05939 | 35320 ft | 445 kts | 122° |
| 2026-05-09 02:29 | -2.40699 | 113.08565 | 35060 ft | 445 kts | 122° |
| 2026-05-09 02:29 | -2.42345 | 113.11191 | 34799 ft | 446 kts | 122° |
| 2026-05-09 02:30 | -2.43991 | 113.13816 | 34563 ft | 446 kts | 122° |
| 2026-05-09 02:30 | -2.45640 | 113.16445 | 34315 ft | 446 kts | 122° |
| 2026-05-09 02:30 | -2.47291 | 113.19079 | 34062 ft | 447 kts | 122° |
| 2026-05-09 02:30 | -2.48937 | 113.21705 | 33573 ft | 445 kts | 122° |
| 2026-05-09 02:31 | -2.50580 | 113.24327 | 32879 ft | 446 kts | 122° |
| 2026-05-09 02:31 | -2.52230 | 113.26959 | 32151 ft | 447 kts | 122° |
| 2026-05-09 02:31 | -2.53883 | 113.29598 | 31393 ft | 448 kts | 122° |
| 2026-05-09 02:31 | -2.55540 | 113.32242 | 30605 ft | 449 kts | 122° |
| 2026-05-09 02:32 | -2.57200 | 113.34891 | 29875 ft | 449 kts | 122° |
| 2026-05-09 02:32 | -2.58850 | 113.37524 | 29366 ft | 444 kts | 122° |
| 2026-05-09 02:32 | -2.60480 | 113.40125 | 28814 ft | 439 kts | 122° |
| 2026-05-09 02:32 | -2.62091 | 113.42698 | 28252 ft | 435 kts | 122° |
| 2026-05-09 02:33 | -2.63689 | 113.45248 | 27691 ft | 430 kts | 122° |
| 2026-05-09 02:33 | -2.65271 | 113.47772 | 27139 ft | 426 kts | 122° |
| 2026-05-09 02:33 | -2.66838 | 113.50273 | 26583 ft | 422 kts | 122° |
| 2026-05-09 02:33 | -2.68389 | 113.52750 | 26035 ft | 418 kts | 122° |
| 2026-05-09 02:34 | -2.69923 | 113.55200 | 25500 ft | 414 kts | 122° |
| 2026-05-09 02:34 | -2.71445 | 113.57630 | 24960 ft | 410 kts | 122° |
| 2026-05-09 02:34 | -2.72951 | 113.60036 | 24424 ft | 406 kts | 122° |
| 2026-05-09 02:34 | -2.74444 | 113.62418 | 23897 ft | 402 kts | 122° |
| 2026-05-09 02:35 | -2.75922 | 113.64778 | 23371 ft | 399 kts | 122° |
| 2026-05-09 02:35 | -2.76894 | 113.66330 | 23036 ft | 396 kts | 122° |
| 2026-05-09 02:35 | -2.78837 | 113.69432 | 22333 ft | 391 kts | 122° |
| 2026-05-09 02:35 | -2.80274 | 113.71729 | 21815 ft | 387 kts | 122° |
| 2026-05-09 02:36 | -2.81697 | 113.74002 | 21310 ft | 384 kts | 122° |
| 2026-05-09 02:36 | -2.82649 | 113.75524 | 20962 ft | 381 kts | 122° |
| 2026-05-09 02:36 | -2.84028 | 113.77727 | 20463 ft | 378 kts | 122° |
| 2026-05-09 02:36 | -2.85439 | 113.79981 | 19945 ft | 375 kts | 122° |
| 2026-05-09 02:37 | -2.87237 | 113.82854 | 19283 ft | 371 kts | 122° |
| 2026-05-09 02:37 | -2.88158 | 113.84325 | 18943 ft | 369 kts | 122° |
| 2026-05-09 02:37 | -2.89513 | 113.86490 | 18441 ft | 365 kts | 122° |
| 2026-05-09 02:37 | -2.90855 | 113.88634 | 17948 ft | 362 kts | 122° |
| 2026-05-09 02:38 | -2.92184 | 113.90759 | 17451 ft | 358 kts | 122° |
| 2026-05-09 02:38 | -2.93474 | 113.92822 | 16960 ft | 355 kts | 122° |
| 2026-05-09 02:38 | -2.94803 | 113.94944 | 16469 ft | 352 kts | 122° |
| 2026-05-09 02:38 | -2.96077 | 113.96980 | 15988 ft | 348 kts | 122° |
| 2026-05-09 02:39 | -2.97356 | 113.99024 | 15508 ft | 345 kts | 122° |
| 2026-05-09 02:39 | -2.98596 | 114.01006 | 15055 ft | 342 kts | 122° |
| 2026-05-09 02:39 | -2.99863 | 114.03029 | 14555 ft | 339 kts | 122° |
| 2026-05-09 02:39 | -3.01108 | 114.05020 | 14074 ft | 336 kts | 122° |
| 2026-05-09 02:40 | -3.02342 | 114.06993 | 13611 ft | 333 kts | 122° |
| 2026-05-09 02:40 | -3.03564 | 114.08948 | 13143 ft | 330 kts | 122° |
| 2026-05-09 02:40 | -3.04776 | 114.10887 | 12671 ft | 327 kts | 122° |
| 2026-05-09 02:40 | -3.05978 | 114.12808 | 12214 ft | 324 kts | 122° |
| 2026-05-09 02:41 | -3.07170 | 114.14713 | 11750 ft | 322 kts | 122° |
| 2026-05-09 02:41 | -3.08351 | 114.16603 | 11296 ft | 319 kts | 122° |
| 2026-05-09 02:41 | -3.09523 | 114.18477 | 10832 ft | 317 kts | 122° |
| 2026-05-09 02:41 | -3.10687 | 114.20338 | 10375 ft | 314 kts | 122° |
| 2026-05-09 02:42 | -3.11837 | 114.22177 | 10058 ft | 306 kts | 122° |
| 2026-05-09 02:42 | -3.12936 | 114.23935 | 10000 ft | 290 kts | 122° |
| 2026-05-09 02:42 | -3.13982 | 114.25607 | 9873 ft | 279 kts | 122° |
| 2026-05-09 02:42 | -3.15008 | 114.27250 | 9497 ft | 279 kts | 122° |
| 2026-05-09 02:43 | -3.16038 | 114.28898 | 9120 ft | 279 kts | 122° |
| 2026-05-09 02:43 | -3.17115 | 114.30506 | 8753 ft | 278 kts | 129° |
| 2026-05-09 02:43 | -3.18443 | 114.31917 | 8350 ft | 279 kts | 135° |
| 2026-05-09 02:43 | -3.19850 | 114.33240 | 7992 ft | 277 kts | 137° |
| 2026-05-09 02:44 | -3.21263 | 114.34545 | 7630 ft | 275 kts | 137° |
| 2026-05-09 02:44 | -3.22667 | 114.35841 | 7287 ft | 274 kts | 136° |
| 2026-05-09 02:44 | -3.24058 | 114.37130 | 6921 ft | 272 kts | 136° |
| 2026-05-09 02:44 | -3.25437 | 114.38414 | 6545 ft | 270 kts | 136° |
| 2026-05-09 02:45 | -3.26810 | 114.39692 | 6194 ft | 268 kts | 136° |
| 2026-05-09 02:45 | -3.28173 | 114.40962 | 5837 ft | 267 kts | 136° |
| 2026-05-09 02:45 | -3.29528 | 114.42226 | 5477 ft | 265 kts | 136° |
| 2026-05-09 02:45 | -3.30872 | 114.43480 | 5125 ft | 264 kts | 136° |
| 2026-05-09 02:46 | -3.32203 | 114.44721 | 4848 ft | 259 kts | 136° |
| 2026-05-09 02:46 | -3.33517 | 114.45947 | 4511 ft | 257 kts | 136° |
| 2026-05-09 02:46 | -3.34823 | 114.47164 | 4155 ft | 257 kts | 136° |
| 2026-05-09 02:46 | -3.36130 | 114.48384 | 3809 ft | 256 kts | 136° |
| 2026-05-09 02:47 | -3.37430 | 114.49598 | 3460 ft | 255 kts | 136° |
| 2026-05-09 02:47 | -3.38707 | 114.50800 | 3128 ft | 257 kts | 133° |
| 2026-05-09 02:47 | -3.39707 | 114.52303 | 3005 ft | 264 kts | 113° |
| 2026-05-09 02:47 | -3.40215 | 114.54071 | 2996 ft | 265 kts | 100° |
| 2026-05-09 02:48 | -3.40485 | 114.55836 | 3004 ft | 250 kts | 98° |
| 2026-05-09 02:48 | -3.40753 | 114.57495 | 3014 ft | 233 kts | 100° |
| 2026-05-09 02:48 | -3.41037 | 114.59038 | 3007 ft | 218 kts | 100° |
| 2026-05-09 02:48 | -3.41310 | 114.60483 | 2978 ft | 206 kts | 100° |
| 2026-05-09 02:49 | -3.41571 | 114.61863 | 2819 ft | 198 kts | 100° |
| 2026-05-09 02:49 | -3.41819 | 114.63214 | 2506 ft | 197 kts | 101° |
| 2026-05-09 02:49 | -3.42066 | 114.64546 | 2201 ft | 190 kts | 101° |
| 2026-05-09 02:49 | -3.42298 | 114.65805 | 1936 ft | 177 kts | 101° |
| 2026-05-09 02:50 | -3.42515 | 114.66977 | 1709 ft | 166 kts | 101° |
| 2026-05-09 02:50 | -3.42717 | 114.68071 | 1502 ft | 152 kts | 101° |
| 2026-05-09 02:50 | -3.42902 | 114.69068 | 1302 ft | 140 kts | 99° |
| 2026-05-09 02:50 | -3.43071 | 114.69985 | 1113 ft | 131 kts | 99° |
| 2026-05-09 02:51 | -3.43234 | 114.70874 | 951 ft | 129 kts | 89° |
| 2026-05-09 02:51 | -3.43362 | 114.71757 | 791 ft | 131 kts | 101° |
| 2026-05-09 02:51 | -3.43562 | 114.72644 | 584 ft | 130 kts | 101° |
| 2026-05-09 02:51 | -3.43724 | 114.73518 | 398 ft | 129 kts | 99° |
| 2026-05-09 02:52 | -3.43893 | 114.74414 | 238 ft | 131 kts | 99° |
| 2026-05-09 02:52 | -3.44056 | 114.75294 | 95 ft | 125 kts | 100° |
| 2026-05-09 02:52 | -3.44194 | 114.76058 | 84 ft | 89 kts | 101° |
| 2026-05-09 02:52 | -3.44271 | 114.76464 | 70 ft | 23 kts | 100° |
| 2026-05-09 02:53 | -3.44300 | 114.76562 | 68 ft | 11 kts | 112° |
| 2026-05-09 02:53 | -3.44300 | 114.76590 | 66 ft | 2 kts | 43° |
| 2026-05-09 02:53 | -3.44288 | 114.76582 | 78 ft | 2 kts | 308° |
| 2026-05-09 02:53 | -3.44282 | 114.76542 | 70 ft | 9 kts | 281° |
| 2026-05-09 02:54 | -3.44267 | 114.76464 | 74 ft | 15 kts | 281° |
| 2026-05-09 02:54 | -3.44247 | 114.76352 | 83 ft | 18 kts | 280° |
| 2026-05-09 02:54 | -3.44226 | 114.76233 | 80 ft | 18 kts | 280° |
| 2026-05-09 02:54 | -3.44203 | 114.76100 | 84 ft | 21 kts | 280° |
| 2026-05-09 02:55 | -3.44187 | 114.76009 | 79 ft | 9 kts | 281° |
| 2026-05-09 02:55 | -3.44176 | 114.75959 | 80 ft | 4 kts | 292° |
| 2026-05-09 02:55 | -3.44161 | 114.75950 | 79 ft | 3 kts | 333° |
| 2026-05-09 02:55 | -3.44123 | 114.75947 | 71 ft | 6 kts | 10° |
| 2026-05-09 02:56 | -3.44060 | 114.75958 | 68 ft | 12 kts | 10° |
| 2026-05-09 02:56 | -3.43976 | 114.75973 | 67 ft | 11 kts | 10° |
| 2026-05-09 02:56 | -3.43937 | 114.75969 | 68 ft | 5 kts | 335° |
| 2026-05-09 02:56 | -3.43922 | 114.75952 | 67 ft | 4 kts | 307° |
| 2026-05-09 02:57 | -3.43906 | 114.75901 | 67 ft | 10 kts | 277° |
| 2026-05-09 02:57 | -3.43896 | 114.75837 | 75 ft | 7 kts | 281° |
| 2026-05-09 02:57 | -3.43890 | 114.75809 | 77 ft | 3 kts | 281° |
| 2026-05-09 02:57 | -3.43880 | 114.75789 | 77 ft | 1 kts | 323° |
| 2026-05-09 02:58 | -3.43866 | 114.75786 | 77 ft | 5 kts | 346° |
| 2026-05-09 02:58 | -3.43841 | 114.75787 | 71 ft | 4 kts | 4° |
| 2026-05-09 02:58 | -3.43809 | 114.75793 | 72 ft | 3 kts | 10° |
| 2026-05-09 02:58 | -3.43806 | 114.75794 | 77 ft | 0 kts | 10° |